<?xml version="1.0" encoding="UTF-8" standalone="no" ?>
<gpx xmlns="http://www.topografix.com/GPX/1/1" xmlns:xsi="http://www.w3.org/2001/XMLSchema-instance" xsi:schemaLocation="http://www.topografix.com/GPX/1/1 http://www.topografix.com/GPX/1/1/gpx.xsd" version="1.1" creator="VisuGPX - https://www.visugpx.com">
  <metadata>
    <name>De Champagne sur Seine à Hericy</name>
    <desc><![CDATA[Départ à la gare SNCF de Champagne sur Seine; arrivée à la gare SNCF de Hericy. Nous passerons par la forêt de Champagne, le Prieuré, Ferland, le Cormier, Hericy, les bord de Seine. Daniel BAIJOT]]></desc>
  </metadata>
  <trk>
    <name><![CDATA[Tracé actuel: 11 MARS 2014 08:19]]></name>
    <trkseg>
      <trkpt lat="48.40645" lon="2.79921">
        <ele>56.37</ele>
        <time>2014-03-11T07:19:54Z</time>
      </trkpt>
      <trkpt lat="48.40649" lon="2.79928">
        <ele>54.93</ele>
        <time>2014-03-11T07:20:07Z</time>
      </trkpt>
      <trkpt lat="48.40653" lon="2.79936">
        <ele>53.49</ele>
        <time>2014-03-11T07:20:28Z</time>
      </trkpt>
      <trkpt lat="48.40653" lon="2.79939">
        <ele>53.97</ele>
        <time>2014-03-11T07:20:29Z</time>
      </trkpt>
      <trkpt lat="48.4064" lon="2.79953">
        <ele>53.01</ele>
        <time>2014-03-11T07:20:46Z</time>
      </trkpt>
      <trkpt lat="48.40628" lon="2.79963">
        <ele>52.53</ele>
        <time>2014-03-11T07:20:59Z</time>
      </trkpt>
      <trkpt lat="48.40611" lon="2.79974">
        <ele>51.09</ele>
        <time>2014-03-11T07:21:14Z</time>
      </trkpt>
      <trkpt lat="48.40588" lon="2.79987">
        <ele>51.09</ele>
        <time>2014-03-11T07:21:32Z</time>
      </trkpt>
      <trkpt lat="48.40574" lon="2.79993">
        <ele>53.01</ele>
        <time>2014-03-11T07:21:45Z</time>
      </trkpt>
      <trkpt lat="48.4057" lon="2.79994">
        <ele>52.53</ele>
        <time>2014-03-11T07:21:48Z</time>
      </trkpt>
      <trkpt lat="48.40553" lon="2.80007">
        <ele>53.01</ele>
        <time>2014-03-11T07:22:03Z</time>
      </trkpt>
      <trkpt lat="48.40553" lon="2.80008">
        <ele>52.53</ele>
        <time>2014-03-11T07:22:07Z</time>
      </trkpt>
      <trkpt lat="48.40553" lon="2.80012">
        <ele>53.01</ele>
        <time>2014-03-11T07:22:09Z</time>
      </trkpt>
      <trkpt lat="48.40551" lon="2.80036">
        <ele>57.34</ele>
        <time>2014-03-11T07:22:21Z</time>
      </trkpt>
      <trkpt lat="48.40552" lon="2.80051">
        <ele>59.74</ele>
        <time>2014-03-11T07:22:33Z</time>
      </trkpt>
      <trkpt lat="48.40562" lon="2.80067">
        <ele>61.66</ele>
        <time>2014-03-11T07:22:49Z</time>
      </trkpt>
      <trkpt lat="48.40577" lon="2.80074">
        <ele>63.58</ele>
        <time>2014-03-11T07:23:05Z</time>
      </trkpt>
      <trkpt lat="48.40593" lon="2.80079">
        <ele>65.51</ele>
        <time>2014-03-11T07:23:23Z</time>
      </trkpt>
      <trkpt lat="48.40607" lon="2.80086">
        <ele>70.79</ele>
        <time>2014-03-11T07:23:38Z</time>
      </trkpt>
      <trkpt lat="48.4062" lon="2.80089">
        <ele>75.6</ele>
        <time>2014-03-11T07:23:55Z</time>
      </trkpt>
      <trkpt lat="48.40622" lon="2.80087">
        <ele>76.08</ele>
        <time>2014-03-11T07:23:57Z</time>
      </trkpt>
      <trkpt lat="48.40643" lon="2.80074">
        <ele>79.45</ele>
        <time>2014-03-11T07:24:15Z</time>
      </trkpt>
      <trkpt lat="48.40661" lon="2.80057">
        <ele>79.93</ele>
        <time>2014-03-11T07:24:32Z</time>
      </trkpt>
      <trkpt lat="48.40678" lon="2.80045">
        <ele>78.48</ele>
        <time>2014-03-11T07:24:48Z</time>
      </trkpt>
      <trkpt lat="48.40699" lon="2.80029">
        <ele>75.6</ele>
        <time>2014-03-11T07:25:05Z</time>
      </trkpt>
      <trkpt lat="48.40706" lon="2.80022">
        <ele>74.64</ele>
        <time>2014-03-11T07:25:12Z</time>
      </trkpt>
      <trkpt lat="48.40727" lon="2.80006">
        <ele>76.08</ele>
        <time>2014-03-11T07:25:29Z</time>
      </trkpt>
      <trkpt lat="48.40743" lon="2.79989">
        <ele>75.12</ele>
        <time>2014-03-11T07:25:45Z</time>
      </trkpt>
      <trkpt lat="48.40764" lon="2.79969">
        <ele>74.64</ele>
        <time>2014-03-11T07:26:03Z</time>
      </trkpt>
      <trkpt lat="48.40789" lon="2.79945">
        <ele>75.12</ele>
        <time>2014-03-11T07:26:24Z</time>
      </trkpt>
      <trkpt lat="48.40804" lon="2.79927">
        <ele>74.64</ele>
        <time>2014-03-11T07:26:41Z</time>
      </trkpt>
      <trkpt lat="48.40824" lon="2.7991">
        <ele>76.56</ele>
        <time>2014-03-11T07:26:55Z</time>
      </trkpt>
      <trkpt lat="48.40835" lon="2.79899">
        <ele>75.6</ele>
        <time>2014-03-11T07:27:05Z</time>
      </trkpt>
      <trkpt lat="48.40853" lon="2.79882">
        <ele>74.64</ele>
        <time>2014-03-11T07:27:21Z</time>
      </trkpt>
      <trkpt lat="48.40863" lon="2.79872">
        <ele>73.68</ele>
        <time>2014-03-11T07:27:34Z</time>
      </trkpt>
      <trkpt lat="48.40866" lon="2.7987">
        <ele>73.2</ele>
        <time>2014-03-11T07:27:37Z</time>
      </trkpt>
      <trkpt lat="48.4089" lon="2.79875">
        <ele>75.6</ele>
        <time>2014-03-11T07:27:53Z</time>
      </trkpt>
      <trkpt lat="48.40909" lon="2.79883">
        <ele>78.97</ele>
        <time>2014-03-11T07:28:08Z</time>
      </trkpt>
      <trkpt lat="48.40931" lon="2.79883">
        <ele>85.69</ele>
        <time>2014-03-11T07:28:24Z</time>
      </trkpt>
      <trkpt lat="48.40934" lon="2.7988">
        <ele>86.18</ele>
        <time>2014-03-11T07:28:27Z</time>
      </trkpt>
      <trkpt lat="48.40956" lon="2.7987">
        <ele>83.29</ele>
        <time>2014-03-11T07:28:43Z</time>
      </trkpt>
      <trkpt lat="48.40978" lon="2.79874">
        <ele>81.37</ele>
        <time>2014-03-11T07:28:58Z</time>
      </trkpt>
      <trkpt lat="48.40997" lon="2.79884">
        <ele>85.69</ele>
        <time>2014-03-11T07:29:13Z</time>
      </trkpt>
      <trkpt lat="48.41019" lon="2.79898">
        <ele>88.1</ele>
        <time>2014-03-11T07:29:32Z</time>
      </trkpt>
      <trkpt lat="48.41043" lon="2.79912">
        <ele>91.46</ele>
        <time>2014-03-11T07:29:52Z</time>
      </trkpt>
      <trkpt lat="48.41057" lon="2.79914">
        <ele>91.46</ele>
        <time>2014-03-11T07:30:03Z</time>
      </trkpt>
      <trkpt lat="48.4107" lon="2.79925">
        <ele>93.39</ele>
        <time>2014-03-11T07:30:16Z</time>
      </trkpt>
      <trkpt lat="48.4108" lon="2.79942">
        <ele>93.39</ele>
        <time>2014-03-11T07:30:28Z</time>
      </trkpt>
      <trkpt lat="48.41096" lon="2.79954">
        <ele>92.9</ele>
        <time>2014-03-11T07:30:43Z</time>
      </trkpt>
      <trkpt lat="48.411" lon="2.79956">
        <ele>91.94</ele>
        <time>2014-03-11T07:30:47Z</time>
      </trkpt>
      <trkpt lat="48.41123" lon="2.79961">
        <ele>90.5</ele>
        <time>2014-03-11T07:31:01Z</time>
      </trkpt>
      <trkpt lat="48.41136" lon="2.7997">
        <ele>91.46</ele>
        <time>2014-03-11T07:31:13Z</time>
      </trkpt>
      <trkpt lat="48.41138" lon="2.79971">
        <ele>91.46</ele>
        <time>2014-03-11T07:31:15Z</time>
      </trkpt>
      <trkpt lat="48.41158" lon="2.7998">
        <ele>91.46</ele>
        <time>2014-03-11T07:31:29Z</time>
      </trkpt>
      <trkpt lat="48.41171" lon="2.79991">
        <ele>92.42</ele>
        <time>2014-03-11T07:31:43Z</time>
      </trkpt>
      <trkpt lat="48.41185" lon="2.80002">
        <ele>94.83</ele>
        <time>2014-03-11T07:31:56Z</time>
      </trkpt>
      <trkpt lat="48.41189" lon="2.80003">
        <ele>94.83</ele>
        <time>2014-03-11T07:32:15Z</time>
      </trkpt>
      <trkpt lat="48.41197" lon="2.8001">
        <ele>99.15</ele>
        <time>2014-03-11T07:32:36Z</time>
      </trkpt>
      <trkpt lat="48.41191" lon="2.8002">
        <ele>98.19</ele>
        <time>2014-03-11T07:32:51Z</time>
      </trkpt>
      <trkpt lat="48.41182" lon="2.80038">
        <ele>100.11</ele>
        <time>2014-03-11T07:33:05Z</time>
      </trkpt>
      <trkpt lat="48.41173" lon="2.80058">
        <ele>101.56</ele>
        <time>2014-03-11T07:33:19Z</time>
      </trkpt>
      <trkpt lat="48.41175" lon="2.80063">
        <ele>101.56</ele>
        <time>2014-03-11T07:33:23Z</time>
      </trkpt>
      <trkpt lat="48.41182" lon="2.80066">
        <ele>101.08</ele>
        <time>2014-03-11T07:33:31Z</time>
      </trkpt>
      <trkpt lat="48.41188" lon="2.80085">
        <ele>99.63</ele>
        <time>2014-03-11T07:33:45Z</time>
      </trkpt>
      <trkpt lat="48.41193" lon="2.80096">
        <ele>101.56</ele>
        <time>2014-03-11T07:34:18Z</time>
      </trkpt>
      <trkpt lat="48.41193" lon="2.80099">
        <ele>102.04</ele>
        <time>2014-03-11T07:34:43Z</time>
      </trkpt>
      <trkpt lat="48.41193" lon="2.80099">
        <ele>101.56</ele>
        <time>2014-03-11T07:34:52Z</time>
      </trkpt>
      <trkpt lat="48.41198" lon="2.80123">
        <ele>99.15</ele>
        <time>2014-03-11T07:35:08Z</time>
      </trkpt>
      <trkpt lat="48.41202" lon="2.80137">
        <ele>98.67</ele>
        <time>2014-03-11T07:35:25Z</time>
      </trkpt>
      <trkpt lat="48.4121" lon="2.8017">
        <ele>95.79</ele>
        <time>2014-03-11T07:35:41Z</time>
      </trkpt>
      <trkpt lat="48.41215" lon="2.80193">
        <ele>93.87</ele>
        <time>2014-03-11T07:35:54Z</time>
      </trkpt>
      <trkpt lat="48.41223" lon="2.80201">
        <ele>89.54</ele>
        <time>2014-03-11T07:36:03Z</time>
      </trkpt>
      <trkpt lat="48.41232" lon="2.80233">
        <ele>91.46</ele>
        <time>2014-03-11T07:36:20Z</time>
      </trkpt>
      <trkpt lat="48.41236" lon="2.80258">
        <ele>94.83</ele>
        <time>2014-03-11T07:36:30Z</time>
      </trkpt>
      <trkpt lat="48.41237" lon="2.8027">
        <ele>95.79</ele>
        <time>2014-03-11T07:36:35Z</time>
      </trkpt>
      <trkpt lat="48.41238" lon="2.80278">
        <ele>95.79</ele>
        <time>2014-03-11T07:36:39Z</time>
      </trkpt>
      <trkpt lat="48.41246" lon="2.80293">
        <ele>95.31</ele>
        <time>2014-03-11T07:36:48Z</time>
      </trkpt>
      <trkpt lat="48.41247" lon="2.80296">
        <ele>94.35</ele>
        <time>2014-03-11T07:36:50Z</time>
      </trkpt>
      <trkpt lat="48.4125" lon="2.80306">
        <ele>93.87</ele>
        <time>2014-03-11T07:36:55Z</time>
      </trkpt>
      <trkpt lat="48.41252" lon="2.80311">
        <ele>93.39</ele>
        <time>2014-03-11T07:36:58Z</time>
      </trkpt>
      <trkpt lat="48.41259" lon="2.80328">
        <ele>90.02</ele>
        <time>2014-03-11T07:37:10Z</time>
      </trkpt>
      <trkpt lat="48.4127" lon="2.80346">
        <ele>88.1</ele>
        <time>2014-03-11T07:37:24Z</time>
      </trkpt>
      <trkpt lat="48.41276" lon="2.80363">
        <ele>86.66</ele>
        <time>2014-03-11T07:37:33Z</time>
      </trkpt>
      <trkpt lat="48.41286" lon="2.80399">
        <ele>85.21</ele>
        <time>2014-03-11T07:37:51Z</time>
      </trkpt>
      <trkpt lat="48.4129" lon="2.80416">
        <ele>87.62</ele>
        <time>2014-03-11T07:37:58Z</time>
      </trkpt>
      <trkpt lat="48.41296" lon="2.8044">
        <ele>90.02</ele>
        <time>2014-03-11T07:38:10Z</time>
      </trkpt>
      <trkpt lat="48.413" lon="2.80465">
        <ele>91.94</ele>
        <time>2014-03-11T07:38:21Z</time>
      </trkpt>
      <trkpt lat="48.41304" lon="2.80476">
        <ele>92.42</ele>
        <time>2014-03-11T07:38:27Z</time>
      </trkpt>
      <trkpt lat="48.41313" lon="2.80503">
        <ele>94.35</ele>
        <time>2014-03-11T07:38:41Z</time>
      </trkpt>
      <trkpt lat="48.41321" lon="2.80522">
        <ele>95.31</ele>
        <time>2014-03-11T07:38:54Z</time>
      </trkpt>
      <trkpt lat="48.41328" lon="2.80551">
        <ele>96.27</ele>
        <time>2014-03-11T07:39:07Z</time>
      </trkpt>
      <trkpt lat="48.41337" lon="2.80577">
        <ele>96.27</ele>
        <time>2014-03-11T07:39:21Z</time>
      </trkpt>
      <trkpt lat="48.41345" lon="2.80602">
        <ele>97.23</ele>
        <time>2014-03-11T07:39:34Z</time>
      </trkpt>
      <trkpt lat="48.41347" lon="2.8061">
        <ele>97.23</ele>
        <time>2014-03-11T07:39:38Z</time>
      </trkpt>
      <trkpt lat="48.4135" lon="2.80621">
        <ele>97.23</ele>
        <time>2014-03-11T07:39:44Z</time>
      </trkpt>
      <trkpt lat="48.41352" lon="2.80631">
        <ele>97.23</ele>
        <time>2014-03-11T07:39:49Z</time>
      </trkpt>
      <trkpt lat="48.41357" lon="2.80651">
        <ele>97.71</ele>
        <time>2014-03-11T07:39:59Z</time>
      </trkpt>
      <trkpt lat="48.41364" lon="2.80666">
        <ele>98.67</ele>
        <time>2014-03-11T07:40:08Z</time>
      </trkpt>
      <trkpt lat="48.41371" lon="2.80698">
        <ele>99.63</ele>
        <time>2014-03-11T07:40:23Z</time>
      </trkpt>
      <trkpt lat="48.41379" lon="2.80732">
        <ele>101.08</ele>
        <time>2014-03-11T07:40:41Z</time>
      </trkpt>
      <trkpt lat="48.41386" lon="2.80761">
        <ele>101.08</ele>
        <time>2014-03-11T07:40:56Z</time>
      </trkpt>
      <trkpt lat="48.41395" lon="2.80782">
        <ele>99.63</ele>
        <time>2014-03-11T07:41:10Z</time>
      </trkpt>
      <trkpt lat="48.41398" lon="2.80789">
        <ele>98.67</ele>
        <time>2014-03-11T07:41:15Z</time>
      </trkpt>
      <trkpt lat="48.41403" lon="2.80806">
        <ele>98.67</ele>
        <time>2014-03-11T07:41:24Z</time>
      </trkpt>
      <trkpt lat="48.41404" lon="2.80812">
        <ele>99.15</ele>
        <time>2014-03-11T07:41:27Z</time>
      </trkpt>
      <trkpt lat="48.4141" lon="2.80839">
        <ele>99.63</ele>
        <time>2014-03-11T07:41:42Z</time>
      </trkpt>
      <trkpt lat="48.41418" lon="2.80861">
        <ele>99.15</ele>
        <time>2014-03-11T07:41:54Z</time>
      </trkpt>
      <trkpt lat="48.41431" lon="2.80879">
        <ele>101.08</ele>
        <time>2014-03-11T07:42:10Z</time>
      </trkpt>
      <trkpt lat="48.41441" lon="2.80883">
        <ele>101.56</ele>
        <time>2014-03-11T07:42:22Z</time>
      </trkpt>
      <trkpt lat="48.41459" lon="2.80877">
        <ele>100.6</ele>
        <time>2014-03-11T07:42:36Z</time>
      </trkpt>
      <trkpt lat="48.4148" lon="2.8087">
        <ele>96.27</ele>
        <time>2014-03-11T07:42:53Z</time>
      </trkpt>
      <trkpt lat="48.41494" lon="2.80863">
        <ele>95.31</ele>
        <time>2014-03-11T07:43:06Z</time>
      </trkpt>
      <trkpt lat="48.41518" lon="2.80854">
        <ele>95.79</ele>
        <time>2014-03-11T07:43:22Z</time>
      </trkpt>
      <trkpt lat="48.41538" lon="2.80836">
        <ele>96.27</ele>
        <time>2014-03-11T07:43:38Z</time>
      </trkpt>
      <trkpt lat="48.41539" lon="2.80836">
        <ele>96.27</ele>
        <time>2014-03-11T07:43:39Z</time>
      </trkpt>
      <trkpt lat="48.41542" lon="2.80832">
        <ele>96.27</ele>
        <time>2014-03-11T07:43:42Z</time>
      </trkpt>
      <trkpt lat="48.41547" lon="2.80822">
        <ele>96.27</ele>
        <time>2014-03-11T07:43:49Z</time>
      </trkpt>
      <trkpt lat="48.41552" lon="2.80821">
        <ele>96.27</ele>
        <time>2014-03-11T07:43:54Z</time>
      </trkpt>
      <trkpt lat="48.41571" lon="2.80824">
        <ele>92.9</ele>
        <time>2014-03-11T07:44:10Z</time>
      </trkpt>
      <trkpt lat="48.41591" lon="2.80826">
        <ele>90.5</ele>
        <time>2014-03-11T07:44:23Z</time>
      </trkpt>
      <trkpt lat="48.41615" lon="2.80818">
        <ele>90.98</ele>
        <time>2014-03-11T07:44:41Z</time>
      </trkpt>
      <trkpt lat="48.41632" lon="2.80812">
        <ele>90.5</ele>
        <time>2014-03-11T07:44:56Z</time>
      </trkpt>
      <trkpt lat="48.41649" lon="2.80804">
        <ele>89.54</ele>
        <time>2014-03-11T07:45:10Z</time>
      </trkpt>
      <trkpt lat="48.41671" lon="2.80797">
        <ele>87.14</ele>
        <time>2014-03-11T07:45:27Z</time>
      </trkpt>
      <trkpt lat="48.41689" lon="2.80791">
        <ele>85.69</ele>
        <time>2014-03-11T07:45:42Z</time>
      </trkpt>
      <trkpt lat="48.41714" lon="2.80787">
        <ele>93.39</ele>
        <time>2014-03-11T07:45:57Z</time>
      </trkpt>
      <trkpt lat="48.41732" lon="2.80782">
        <ele>93.39</ele>
        <time>2014-03-11T07:46:12Z</time>
      </trkpt>
      <trkpt lat="48.41747" lon="2.80776">
        <ele>91.94</ele>
        <time>2014-03-11T07:46:25Z</time>
      </trkpt>
      <trkpt lat="48.41763" lon="2.80771">
        <ele>90.5</ele>
        <time>2014-03-11T07:46:41Z</time>
      </trkpt>
      <trkpt lat="48.41779" lon="2.80765">
        <ele>87.62</ele>
        <time>2014-03-11T07:46:54Z</time>
      </trkpt>
      <trkpt lat="48.41798" lon="2.80758">
        <ele>87.62</ele>
        <time>2014-03-11T07:47:09Z</time>
      </trkpt>
      <trkpt lat="48.41816" lon="2.80751">
        <ele>86.66</ele>
        <time>2014-03-11T07:47:25Z</time>
      </trkpt>
      <trkpt lat="48.41841" lon="2.80744">
        <ele>85.69</ele>
        <time>2014-03-11T07:47:41Z</time>
      </trkpt>
      <trkpt lat="48.41861" lon="2.80737">
        <ele>87.62</ele>
        <time>2014-03-11T07:47:55Z</time>
      </trkpt>
      <trkpt lat="48.41882" lon="2.80731">
        <ele>88.1</ele>
        <time>2014-03-11T07:48:10Z</time>
      </trkpt>
      <trkpt lat="48.41899" lon="2.80724">
        <ele>87.62</ele>
        <time>2014-03-11T07:48:23Z</time>
      </trkpt>
      <trkpt lat="48.41925" lon="2.80716">
        <ele>89.54</ele>
        <time>2014-03-11T07:48:40Z</time>
      </trkpt>
      <trkpt lat="48.41942" lon="2.80709">
        <ele>90.02</ele>
        <time>2014-03-11T07:48:56Z</time>
      </trkpt>
      <trkpt lat="48.41957" lon="2.80703">
        <ele>88.1</ele>
        <time>2014-03-11T07:49:09Z</time>
      </trkpt>
      <trkpt lat="48.41986" lon="2.80698">
        <ele>90.02</ele>
        <time>2014-03-11T07:49:22Z</time>
      </trkpt>
      <trkpt lat="48.42009" lon="2.80693">
        <ele>95.31</ele>
        <time>2014-03-11T07:49:35Z</time>
      </trkpt>
      <trkpt lat="48.42022" lon="2.80685">
        <ele>91.94</ele>
        <time>2014-03-11T07:49:50Z</time>
      </trkpt>
      <trkpt lat="48.42034" lon="2.8068">
        <ele>88.58</ele>
        <time>2014-03-11T07:50:06Z</time>
      </trkpt>
      <trkpt lat="48.42069" lon="2.80673">
        <ele>96.27</ele>
        <time>2014-03-11T07:50:22Z</time>
      </trkpt>
      <trkpt lat="48.42089" lon="2.80669">
        <ele>99.63</ele>
        <time>2014-03-11T07:50:37Z</time>
      </trkpt>
      <trkpt lat="48.42102" lon="2.8066">
        <ele>97.71</ele>
        <time>2014-03-11T07:50:51Z</time>
      </trkpt>
      <trkpt lat="48.4211" lon="2.80657">
        <ele>95.31</ele>
        <time>2014-03-11T07:51:06Z</time>
      </trkpt>
      <trkpt lat="48.42117" lon="2.80655">
        <ele>94.35</ele>
        <time>2014-03-11T07:51:25Z</time>
      </trkpt>
      <trkpt lat="48.42133" lon="2.80649">
        <ele>89.54</ele>
        <time>2014-03-11T07:51:42Z</time>
      </trkpt>
      <trkpt lat="48.42156" lon="2.80638">
        <ele>83.77</ele>
        <time>2014-03-11T07:51:58Z</time>
      </trkpt>
      <trkpt lat="48.42173" lon="2.80634">
        <ele>82.81</ele>
        <time>2014-03-11T07:52:13Z</time>
      </trkpt>
      <trkpt lat="48.42188" lon="2.8063">
        <ele>83.29</ele>
        <time>2014-03-11T07:52:27Z</time>
      </trkpt>
      <trkpt lat="48.42198" lon="2.80625">
        <ele>84.25</ele>
        <time>2014-03-11T07:52:37Z</time>
      </trkpt>
      <trkpt lat="48.42241" lon="2.80614">
        <ele>90.02</ele>
        <time>2014-03-11T07:52:51Z</time>
      </trkpt>
      <trkpt lat="48.42267" lon="2.80604">
        <ele>95.79</ele>
        <time>2014-03-11T07:53:05Z</time>
      </trkpt>
      <trkpt lat="48.42282" lon="2.806">
        <ele>95.31</ele>
        <time>2014-03-11T07:53:19Z</time>
      </trkpt>
      <trkpt lat="48.42306" lon="2.80592">
        <ele>93.39</ele>
        <time>2014-03-11T07:53:33Z</time>
      </trkpt>
      <trkpt lat="48.42333" lon="2.80584">
        <ele>98.19</ele>
        <time>2014-03-11T07:53:48Z</time>
      </trkpt>
      <trkpt lat="48.42354" lon="2.80572">
        <ele>97.23</ele>
        <time>2014-03-11T07:54:03Z</time>
      </trkpt>
      <trkpt lat="48.42374" lon="2.80568">
        <ele>97.71</ele>
        <time>2014-03-11T07:54:20Z</time>
      </trkpt>
      <trkpt lat="48.42391" lon="2.80561">
        <ele>96.27</ele>
        <time>2014-03-11T07:54:37Z</time>
      </trkpt>
      <trkpt lat="48.42404" lon="2.80554">
        <ele>91.94</ele>
        <time>2014-03-11T07:54:51Z</time>
      </trkpt>
      <trkpt lat="48.42415" lon="2.80549">
        <ele>88.1</ele>
        <time>2014-03-11T07:55:03Z</time>
      </trkpt>
      <trkpt lat="48.42438" lon="2.8054">
        <ele>90.5</ele>
        <time>2014-03-11T07:55:17Z</time>
      </trkpt>
      <trkpt lat="48.42449" lon="2.80538">
        <ele>90.5</ele>
        <time>2014-03-11T07:55:32Z</time>
      </trkpt>
      <trkpt lat="48.42461" lon="2.80535">
        <ele>89.54</ele>
        <time>2014-03-11T07:55:43Z</time>
      </trkpt>
      <trkpt lat="48.4248" lon="2.80527">
        <ele>90.5</ele>
        <time>2014-03-11T07:55:55Z</time>
      </trkpt>
      <trkpt lat="48.42498" lon="2.80523">
        <ele>90.98</ele>
        <time>2014-03-11T07:56:09Z</time>
      </trkpt>
      <trkpt lat="48.42512" lon="2.80521">
        <ele>92.42</ele>
        <time>2014-03-11T07:56:22Z</time>
      </trkpt>
      <trkpt lat="48.42529" lon="2.80515">
        <ele>94.35</ele>
        <time>2014-03-11T07:56:34Z</time>
      </trkpt>
      <trkpt lat="48.42553" lon="2.80522">
        <ele>95.31</ele>
        <time>2014-03-11T07:56:48Z</time>
      </trkpt>
      <trkpt lat="48.42571" lon="2.80534">
        <ele>91.94</ele>
        <time>2014-03-11T07:57:05Z</time>
      </trkpt>
      <trkpt lat="48.42575" lon="2.80535">
        <ele>91.46</ele>
        <time>2014-03-11T07:57:08Z</time>
      </trkpt>
      <trkpt lat="48.4259" lon="2.80556">
        <ele>88.58</ele>
        <time>2014-03-11T07:57:25Z</time>
      </trkpt>
      <trkpt lat="48.42606" lon="2.80573">
        <ele>89.06</ele>
        <time>2014-03-11T07:57:41Z</time>
      </trkpt>
      <trkpt lat="48.42623" lon="2.8058">
        <ele>87.14</ele>
        <time>2014-03-11T07:57:56Z</time>
      </trkpt>
      <trkpt lat="48.42636" lon="2.80581">
        <ele>86.18</ele>
        <time>2014-03-11T07:58:11Z</time>
      </trkpt>
      <trkpt lat="48.42662" lon="2.80588">
        <ele>84.25</ele>
        <time>2014-03-11T07:58:28Z</time>
      </trkpt>
      <trkpt lat="48.42675" lon="2.80596">
        <ele>82.81</ele>
        <time>2014-03-11T07:58:38Z</time>
      </trkpt>
      <trkpt lat="48.42691" lon="2.80619">
        <ele>81.37</ele>
        <time>2014-03-11T07:58:56Z</time>
      </trkpt>
      <trkpt lat="48.42699" lon="2.80643">
        <ele>85.21</ele>
        <time>2014-03-11T07:59:11Z</time>
      </trkpt>
      <trkpt lat="48.42717" lon="2.80662">
        <ele>88.1</ele>
        <time>2014-03-11T07:59:29Z</time>
      </trkpt>
      <trkpt lat="48.42736" lon="2.80671">
        <ele>89.06</ele>
        <time>2014-03-11T07:59:46Z</time>
      </trkpt>
      <trkpt lat="48.42755" lon="2.80675">
        <ele>85.69</ele>
        <time>2014-03-11T08:00:01Z</time>
      </trkpt>
      <trkpt lat="48.42771" lon="2.80678">
        <ele>84.73</ele>
        <time>2014-03-11T08:00:17Z</time>
      </trkpt>
      <trkpt lat="48.42799" lon="2.80683">
        <ele>83.77</ele>
        <time>2014-03-11T08:00:36Z</time>
      </trkpt>
      <trkpt lat="48.42822" lon="2.80688">
        <ele>82.33</ele>
        <time>2014-03-11T08:00:53Z</time>
      </trkpt>
      <trkpt lat="48.42837" lon="2.80694">
        <ele>82.33</ele>
        <time>2014-03-11T08:01:08Z</time>
      </trkpt>
      <trkpt lat="48.42844" lon="2.80699">
        <ele>85.21</ele>
        <time>2014-03-11T08:01:23Z</time>
      </trkpt>
      <trkpt lat="48.42862" lon="2.80703">
        <ele>81.85</ele>
        <time>2014-03-11T08:01:36Z</time>
      </trkpt>
      <trkpt lat="48.42886" lon="2.80718">
        <ele>78.48</ele>
        <time>2014-03-11T08:01:53Z</time>
      </trkpt>
      <trkpt lat="48.42904" lon="2.80728">
        <ele>77.04</ele>
        <time>2014-03-11T08:02:07Z</time>
      </trkpt>
      <trkpt lat="48.42925" lon="2.8074">
        <ele>78.97</ele>
        <time>2014-03-11T08:02:25Z</time>
      </trkpt>
      <trkpt lat="48.42935" lon="2.80745">
        <ele>81.37</ele>
        <time>2014-03-11T08:02:44Z</time>
      </trkpt>
      <trkpt lat="48.42945" lon="2.80748">
        <ele>79.45</ele>
        <time>2014-03-11T08:03:04Z</time>
      </trkpt>
      <trkpt lat="48.42961" lon="2.80753">
        <ele>76.08</ele>
        <time>2014-03-11T08:03:21Z</time>
      </trkpt>
      <trkpt lat="48.42989" lon="2.80761">
        <ele>73.2</ele>
        <time>2014-03-11T08:03:38Z</time>
      </trkpt>
      <trkpt lat="48.43009" lon="2.80765">
        <ele>74.16</ele>
        <time>2014-03-11T08:03:50Z</time>
      </trkpt>
      <trkpt lat="48.43018" lon="2.80772">
        <ele>74.16</ele>
        <time>2014-03-11T08:03:57Z</time>
      </trkpt>
      <trkpt lat="48.43037" lon="2.80782">
        <ele>72.24</ele>
        <time>2014-03-11T08:04:14Z</time>
      </trkpt>
      <trkpt lat="48.43051" lon="2.80784">
        <ele>71.76</ele>
        <time>2014-03-11T08:04:31Z</time>
      </trkpt>
      <trkpt lat="48.43062" lon="2.80776">
        <ele>67.91</ele>
        <time>2014-03-11T08:04:47Z</time>
      </trkpt>
      <trkpt lat="48.43083" lon="2.80763">
        <ele>68.87</ele>
        <time>2014-03-11T08:05:05Z</time>
      </trkpt>
      <trkpt lat="48.43105" lon="2.80757">
        <ele>74.64</ele>
        <time>2014-03-11T08:05:19Z</time>
      </trkpt>
      <trkpt lat="48.43127" lon="2.80756">
        <ele>78.97</ele>
        <time>2014-03-11T08:05:34Z</time>
      </trkpt>
      <trkpt lat="48.43142" lon="2.80757">
        <ele>81.85</ele>
        <time>2014-03-11T08:05:49Z</time>
      </trkpt>
      <trkpt lat="48.43162" lon="2.8076">
        <ele>80.89</ele>
        <time>2014-03-11T08:06:06Z</time>
      </trkpt>
      <trkpt lat="48.43177" lon="2.80758">
        <ele>78.48</ele>
        <time>2014-03-11T08:06:17Z</time>
      </trkpt>
      <trkpt lat="48.4319" lon="2.80737">
        <ele>77.04</ele>
        <time>2014-03-11T08:06:31Z</time>
      </trkpt>
      <trkpt lat="48.43196" lon="2.80728">
        <ele>77.52</ele>
        <time>2014-03-11T08:06:36Z</time>
      </trkpt>
      <trkpt lat="48.4322" lon="2.80694">
        <ele>82.33</ele>
        <time>2014-03-11T08:06:53Z</time>
      </trkpt>
      <trkpt lat="48.43232" lon="2.80666">
        <ele>82.33</ele>
        <time>2014-03-11T08:07:08Z</time>
      </trkpt>
      <trkpt lat="48.43246" lon="2.80631">
        <ele>86.66</ele>
        <time>2014-03-11T08:07:23Z</time>
      </trkpt>
      <trkpt lat="48.43255" lon="2.80618">
        <ele>90.98</ele>
        <time>2014-03-11T08:07:41Z</time>
      </trkpt>
      <trkpt lat="48.43274" lon="2.80617">
        <ele>89.54</ele>
        <time>2014-03-11T08:07:57Z</time>
      </trkpt>
      <trkpt lat="48.43295" lon="2.80611">
        <ele>83.77</ele>
        <time>2014-03-11T08:08:15Z</time>
      </trkpt>
      <trkpt lat="48.43302" lon="2.80607">
        <ele>82.81</ele>
        <time>2014-03-11T08:08:20Z</time>
      </trkpt>
      <trkpt lat="48.43308" lon="2.80606">
        <ele>82.81</ele>
        <time>2014-03-11T08:08:24Z</time>
      </trkpt>
      <trkpt lat="48.43318" lon="2.80606">
        <ele>82.81</ele>
        <time>2014-03-11T08:08:40Z</time>
      </trkpt>
      <trkpt lat="48.43321" lon="2.80609">
        <ele>86.66</ele>
        <time>2014-03-11T08:09:09Z</time>
      </trkpt>
      <trkpt lat="48.43327" lon="2.80613">
        <ele>89.54</ele>
        <time>2014-03-11T08:09:29Z</time>
      </trkpt>
      <trkpt lat="48.43344" lon="2.80607">
        <ele>86.66</ele>
        <time>2014-03-11T08:09:43Z</time>
      </trkpt>
      <trkpt lat="48.43366" lon="2.806">
        <ele>85.21</ele>
        <time>2014-03-11T08:10:01Z</time>
      </trkpt>
      <trkpt lat="48.43385" lon="2.8059">
        <ele>80.41</ele>
        <time>2014-03-11T08:10:18Z</time>
      </trkpt>
      <trkpt lat="48.43387" lon="2.80587">
        <ele>79.93</ele>
        <time>2014-03-11T08:10:20Z</time>
      </trkpt>
      <trkpt lat="48.43409" lon="2.80565">
        <ele>77.52</ele>
        <time>2014-03-11T08:10:38Z</time>
      </trkpt>
      <trkpt lat="48.43412" lon="2.80561">
        <ele>77.52</ele>
        <time>2014-03-11T08:10:41Z</time>
      </trkpt>
      <trkpt lat="48.43431" lon="2.80537">
        <ele>74.16</ele>
        <time>2014-03-11T08:10:59Z</time>
      </trkpt>
      <trkpt lat="48.43432" lon="2.80531">
        <ele>73.68</ele>
        <time>2014-03-11T08:11:02Z</time>
      </trkpt>
      <trkpt lat="48.43443" lon="2.80501">
        <ele>73.2</ele>
        <time>2014-03-11T08:11:19Z</time>
      </trkpt>
      <trkpt lat="48.43444" lon="2.80499">
        <ele>72.72</ele>
        <time>2014-03-11T08:11:20Z</time>
      </trkpt>
      <trkpt lat="48.43453" lon="2.80468">
        <ele>76.56</ele>
        <time>2014-03-11T08:11:36Z</time>
      </trkpt>
      <trkpt lat="48.43461" lon="2.80452">
        <ele>74.64</ele>
        <time>2014-03-11T08:11:45Z</time>
      </trkpt>
      <trkpt lat="48.43476" lon="2.80425">
        <ele>78.48</ele>
        <time>2014-03-11T08:12:03Z</time>
      </trkpt>
      <trkpt lat="48.43488" lon="2.80408">
        <ele>83.29</ele>
        <time>2014-03-11T08:12:16Z</time>
      </trkpt>
      <trkpt lat="48.43491" lon="2.80407">
        <ele>83.77</ele>
        <time>2014-03-11T08:12:37Z</time>
      </trkpt>
      <trkpt lat="48.43492" lon="2.80406">
        <ele>85.21</ele>
        <time>2014-03-11T08:12:58Z</time>
      </trkpt>
      <trkpt lat="48.43506" lon="2.80397">
        <ele>86.18</ele>
        <time>2014-03-11T08:13:17Z</time>
      </trkpt>
      <trkpt lat="48.43528" lon="2.80379">
        <ele>87.14</ele>
        <time>2014-03-11T08:13:35Z</time>
      </trkpt>
      <trkpt lat="48.43555" lon="2.8036">
        <ele>90.5</ele>
        <time>2014-03-11T08:13:55Z</time>
      </trkpt>
      <trkpt lat="48.43582" lon="2.80349">
        <ele>89.54</ele>
        <time>2014-03-11T08:14:16Z</time>
      </trkpt>
      <trkpt lat="48.43597" lon="2.80347">
        <ele>89.06</ele>
        <time>2014-03-11T08:14:29Z</time>
      </trkpt>
      <trkpt lat="48.43602" lon="2.80346">
        <ele>88.58</ele>
        <time>2014-03-11T08:14:33Z</time>
      </trkpt>
      <trkpt lat="48.43622" lon="2.80337">
        <ele>86.66</ele>
        <time>2014-03-11T08:14:48Z</time>
      </trkpt>
      <trkpt lat="48.43643" lon="2.80317">
        <ele>85.69</ele>
        <time>2014-03-11T08:15:06Z</time>
      </trkpt>
      <trkpt lat="48.43658" lon="2.80297">
        <ele>84.73</ele>
        <time>2014-03-11T08:15:22Z</time>
      </trkpt>
      <trkpt lat="48.43678" lon="2.8027">
        <ele>85.69</ele>
        <time>2014-03-11T08:15:42Z</time>
      </trkpt>
      <trkpt lat="48.43683" lon="2.80267">
        <ele>86.66</ele>
        <time>2014-03-11T08:15:46Z</time>
      </trkpt>
      <trkpt lat="48.43691" lon="2.80267">
        <ele>89.06</ele>
        <time>2014-03-11T08:16:04Z</time>
      </trkpt>
      <trkpt lat="48.43691" lon="2.80268">
        <ele>90.5</ele>
        <time>2014-03-11T08:16:16Z</time>
      </trkpt>
      <trkpt lat="48.437" lon="2.80301">
        <ele>88.1</ele>
        <time>2014-03-11T08:16:35Z</time>
      </trkpt>
      <trkpt lat="48.43703" lon="2.80338">
        <ele>91.46</ele>
        <time>2014-03-11T08:16:52Z</time>
      </trkpt>
      <trkpt lat="48.43706" lon="2.80383">
        <ele>92.42</ele>
        <time>2014-03-11T08:17:13Z</time>
      </trkpt>
      <trkpt lat="48.43722" lon="2.80418">
        <ele>92.42</ele>
        <time>2014-03-11T08:17:33Z</time>
      </trkpt>
      <trkpt lat="48.43741" lon="2.80441">
        <ele>91.94</ele>
        <time>2014-03-11T08:17:51Z</time>
      </trkpt>
      <trkpt lat="48.43762" lon="2.80456">
        <ele>90.98</ele>
        <time>2014-03-11T08:18:08Z</time>
      </trkpt>
      <trkpt lat="48.43786" lon="2.80481">
        <ele>88.58</ele>
        <time>2014-03-11T08:18:29Z</time>
      </trkpt>
      <trkpt lat="48.43798" lon="2.80495">
        <ele>87.14</ele>
        <time>2014-03-11T08:18:41Z</time>
      </trkpt>
      <trkpt lat="48.43804" lon="2.80501">
        <ele>86.18</ele>
        <time>2014-03-11T08:18:46Z</time>
      </trkpt>
      <trkpt lat="48.43818" lon="2.80517">
        <ele>84.73</ele>
        <time>2014-03-11T08:19:00Z</time>
      </trkpt>
      <trkpt lat="48.43836" lon="2.80531">
        <ele>84.25</ele>
        <time>2014-03-11T08:19:13Z</time>
      </trkpt>
      <trkpt lat="48.43855" lon="2.80545">
        <ele>85.69</ele>
        <time>2014-03-11T08:19:26Z</time>
      </trkpt>
      <trkpt lat="48.43865" lon="2.80557">
        <ele>86.66</ele>
        <time>2014-03-11T08:19:40Z</time>
      </trkpt>
      <trkpt lat="48.43882" lon="2.80588">
        <ele>87.14</ele>
        <time>2014-03-11T08:19:56Z</time>
      </trkpt>
      <trkpt lat="48.43887" lon="2.8061">
        <ele>89.06</ele>
        <time>2014-03-11T08:20:12Z</time>
      </trkpt>
      <trkpt lat="48.43884" lon="2.80635">
        <ele>90.02</ele>
        <time>2014-03-11T08:20:28Z</time>
      </trkpt>
      <trkpt lat="48.4388" lon="2.80643">
        <ele>90.5</ele>
        <time>2014-03-11T08:20:34Z</time>
      </trkpt>
      <trkpt lat="48.43872" lon="2.80675">
        <ele>91.94</ele>
        <time>2014-03-11T08:20:49Z</time>
      </trkpt>
      <trkpt lat="48.43872" lon="2.80676">
        <ele>92.9</ele>
        <time>2014-03-11T08:20:53Z</time>
      </trkpt>
      <trkpt lat="48.43873" lon="2.80696">
        <ele>95.79</ele>
        <time>2014-03-11T08:21:08Z</time>
      </trkpt>
      <trkpt lat="48.4387" lon="2.80708">
        <ele>96.27</ele>
        <time>2014-03-11T08:21:17Z</time>
      </trkpt>
      <trkpt lat="48.43872" lon="2.80698">
        <ele>96.27</ele>
        <time>2014-03-11T08:21:21Z</time>
      </trkpt>
      <trkpt lat="48.43873" lon="2.80676">
        <ele>95.31</ele>
        <time>2014-03-11T08:21:37Z</time>
      </trkpt>
      <trkpt lat="48.43873" lon="2.80675">
        <ele>95.31</ele>
        <time>2014-03-11T08:21:47Z</time>
      </trkpt>
      <trkpt lat="48.43874" lon="2.80665">
        <ele>78</ele>
        <time>2014-03-11T08:29:20Z</time>
      </trkpt>
      <trkpt lat="48.43874" lon="2.80665">
        <ele>80.89</ele>
        <time>2014-03-11T08:29:28Z</time>
      </trkpt>
      <trkpt lat="48.43871" lon="2.80685">
        <ele>87.14</ele>
        <time>2014-03-11T08:32:35Z</time>
      </trkpt>
      <trkpt lat="48.4387" lon="2.80713">
        <ele>89.54</ele>
        <time>2014-03-11T08:32:50Z</time>
      </trkpt>
      <trkpt lat="48.43876" lon="2.80739">
        <ele>90.98</ele>
        <time>2014-03-11T08:33:03Z</time>
      </trkpt>
      <trkpt lat="48.43894" lon="2.80767">
        <ele>92.42</ele>
        <time>2014-03-11T08:33:21Z</time>
      </trkpt>
      <trkpt lat="48.4392" lon="2.80779">
        <ele>93.39</ele>
        <time>2014-03-11T08:33:41Z</time>
      </trkpt>
      <trkpt lat="48.43945" lon="2.80787">
        <ele>94.35</ele>
        <time>2014-03-11T08:33:59Z</time>
      </trkpt>
      <trkpt lat="48.43974" lon="2.80789">
        <ele>95.79</ele>
        <time>2014-03-11T08:34:21Z</time>
      </trkpt>
      <trkpt lat="48.43999" lon="2.8079">
        <ele>96.27</ele>
        <time>2014-03-11T08:34:39Z</time>
      </trkpt>
      <trkpt lat="48.44026" lon="2.80789">
        <ele>96.75</ele>
        <time>2014-03-11T08:34:59Z</time>
      </trkpt>
      <trkpt lat="48.44055" lon="2.80787">
        <ele>97.23</ele>
        <time>2014-03-11T08:35:20Z</time>
      </trkpt>
      <trkpt lat="48.44063" lon="2.80787">
        <ele>97.23</ele>
        <time>2014-03-11T08:35:34Z</time>
      </trkpt>
      <trkpt lat="48.44068" lon="2.80787">
        <ele>96.27</ele>
        <time>2014-03-11T08:35:51Z</time>
      </trkpt>
      <trkpt lat="48.44091" lon="2.80786">
        <ele>94.83</ele>
        <time>2014-03-11T08:36:10Z</time>
      </trkpt>
      <trkpt lat="48.44094" lon="2.80787">
        <ele>96.27</ele>
        <time>2014-03-11T08:36:23Z</time>
      </trkpt>
      <trkpt lat="48.44113" lon="2.80787">
        <ele>95.79</ele>
        <time>2014-03-11T08:36:39Z</time>
      </trkpt>
      <trkpt lat="48.44131" lon="2.80785">
        <ele>95.31</ele>
        <time>2014-03-11T08:36:53Z</time>
      </trkpt>
      <trkpt lat="48.44163" lon="2.80784">
        <ele>94.35</ele>
        <time>2014-03-11T08:37:15Z</time>
      </trkpt>
      <trkpt lat="48.44194" lon="2.80783">
        <ele>93.87</ele>
        <time>2014-03-11T08:37:39Z</time>
      </trkpt>
      <trkpt lat="48.44222" lon="2.80782">
        <ele>94.83</ele>
        <time>2014-03-11T08:38:00Z</time>
      </trkpt>
      <trkpt lat="48.44249" lon="2.80781">
        <ele>95.31</ele>
        <time>2014-03-11T08:38:21Z</time>
      </trkpt>
      <trkpt lat="48.44279" lon="2.80779">
        <ele>96.75</ele>
        <time>2014-03-11T08:38:42Z</time>
      </trkpt>
      <trkpt lat="48.44305" lon="2.80775">
        <ele>98.19</ele>
        <time>2014-03-11T08:39:02Z</time>
      </trkpt>
      <trkpt lat="48.44334" lon="2.80769">
        <ele>99.15</ele>
        <time>2014-03-11T08:39:24Z</time>
      </trkpt>
      <trkpt lat="48.44364" lon="2.8076">
        <ele>101.08</ele>
        <time>2014-03-11T08:39:46Z</time>
      </trkpt>
      <trkpt lat="48.44391" lon="2.80749">
        <ele>101.08</ele>
        <time>2014-03-11T08:40:07Z</time>
      </trkpt>
      <trkpt lat="48.44391" lon="2.80748">
        <ele>101.08</ele>
        <time>2014-03-11T08:40:13Z</time>
      </trkpt>
      <trkpt lat="48.44413" lon="2.80738">
        <ele>101.56</ele>
        <time>2014-03-11T08:40:31Z</time>
      </trkpt>
      <trkpt lat="48.44435" lon="2.80727">
        <ele>102.04</ele>
        <time>2014-03-11T08:40:48Z</time>
      </trkpt>
      <trkpt lat="48.4447" lon="2.8071">
        <ele>103.96</ele>
        <time>2014-03-11T08:41:15Z</time>
      </trkpt>
      <trkpt lat="48.44502" lon="2.80692">
        <ele>104.44</ele>
        <time>2014-03-11T08:41:40Z</time>
      </trkpt>
      <trkpt lat="48.4453" lon="2.80676">
        <ele>105.4</ele>
        <time>2014-03-11T08:42:03Z</time>
      </trkpt>
      <trkpt lat="48.44547" lon="2.80663">
        <ele>105.4</ele>
        <time>2014-03-11T08:42:18Z</time>
      </trkpt>
      <trkpt lat="48.44575" lon="2.80646">
        <ele>105.4</ele>
        <time>2014-03-11T08:42:40Z</time>
      </trkpt>
      <trkpt lat="48.44585" lon="2.80638">
        <ele>104.92</ele>
        <time>2014-03-11T08:42:51Z</time>
      </trkpt>
      <trkpt lat="48.44615" lon="2.80614">
        <ele>105.4</ele>
        <time>2014-03-11T08:43:17Z</time>
      </trkpt>
      <trkpt lat="48.44646" lon="2.80594">
        <ele>104.92</ele>
        <time>2014-03-11T08:43:41Z</time>
      </trkpt>
      <trkpt lat="48.44672" lon="2.80575">
        <ele>103.48</ele>
        <time>2014-03-11T08:44:03Z</time>
      </trkpt>
      <trkpt lat="48.44701" lon="2.80554">
        <ele>104.44</ele>
        <time>2014-03-11T08:44:27Z</time>
      </trkpt>
      <trkpt lat="48.4473" lon="2.80534">
        <ele>103.96</ele>
        <time>2014-03-11T08:44:50Z</time>
      </trkpt>
      <trkpt lat="48.44756" lon="2.80515">
        <ele>103</ele>
        <time>2014-03-11T08:45:12Z</time>
      </trkpt>
      <trkpt lat="48.44781" lon="2.80496">
        <ele>102.04</ele>
        <time>2014-03-11T08:45:34Z</time>
      </trkpt>
      <trkpt lat="48.4481" lon="2.80477">
        <ele>102.52</ele>
        <time>2014-03-11T08:45:58Z</time>
      </trkpt>
      <trkpt lat="48.44842" lon="2.80454">
        <ele>101.56</ele>
        <time>2014-03-11T08:46:25Z</time>
      </trkpt>
      <trkpt lat="48.4487" lon="2.80433">
        <ele>103.96</ele>
        <time>2014-03-11T08:46:49Z</time>
      </trkpt>
      <trkpt lat="48.44901" lon="2.80412">
        <ele>103.48</ele>
        <time>2014-03-11T08:47:15Z</time>
      </trkpt>
      <trkpt lat="48.44926" lon="2.80397">
        <ele>103</ele>
        <time>2014-03-11T08:47:36Z</time>
      </trkpt>
      <trkpt lat="48.44948" lon="2.80384">
        <ele>102.52</ele>
        <time>2014-03-11T08:47:55Z</time>
      </trkpt>
      <trkpt lat="48.44974" lon="2.8037">
        <ele>101.56</ele>
        <time>2014-03-11T08:48:17Z</time>
      </trkpt>
      <trkpt lat="48.44999" lon="2.80352">
        <ele>100.11</ele>
        <time>2014-03-11T08:48:39Z</time>
      </trkpt>
      <trkpt lat="48.45027" lon="2.80334">
        <ele>100.11</ele>
        <time>2014-03-11T08:49:03Z</time>
      </trkpt>
      <trkpt lat="48.45057" lon="2.80318">
        <ele>98.67</ele>
        <time>2014-03-11T08:49:26Z</time>
      </trkpt>
      <trkpt lat="48.4508" lon="2.80304">
        <ele>100.11</ele>
        <time>2014-03-11T08:49:46Z</time>
      </trkpt>
      <trkpt lat="48.45101" lon="2.80289">
        <ele>99.63</ele>
        <time>2014-03-11T08:50:04Z</time>
      </trkpt>
      <trkpt lat="48.45128" lon="2.80273">
        <ele>99.15</ele>
        <time>2014-03-11T08:50:27Z</time>
      </trkpt>
      <trkpt lat="48.45153" lon="2.80257">
        <ele>97.71</ele>
        <time>2014-03-11T08:50:48Z</time>
      </trkpt>
      <trkpt lat="48.45182" lon="2.8024">
        <ele>98.19</ele>
        <time>2014-03-11T08:51:11Z</time>
      </trkpt>
      <trkpt lat="48.45207" lon="2.80226">
        <ele>100.11</ele>
        <time>2014-03-11T08:51:32Z</time>
      </trkpt>
      <trkpt lat="48.45232" lon="2.8021">
        <ele>100.6</ele>
        <time>2014-03-11T08:51:53Z</time>
      </trkpt>
      <trkpt lat="48.45253" lon="2.80195">
        <ele>101.56</ele>
        <time>2014-03-11T08:52:10Z</time>
      </trkpt>
      <trkpt lat="48.45265" lon="2.80186">
        <ele>101.56</ele>
        <time>2014-03-11T08:52:26Z</time>
      </trkpt>
      <trkpt lat="48.45266" lon="2.80186">
        <ele>101.56</ele>
        <time>2014-03-11T08:52:27Z</time>
      </trkpt>
      <trkpt lat="48.45269" lon="2.80186">
        <ele>101.56</ele>
        <time>2014-03-11T08:52:30Z</time>
      </trkpt>
      <trkpt lat="48.45287" lon="2.80226">
        <ele>99.63</ele>
        <time>2014-03-11T08:52:55Z</time>
      </trkpt>
      <trkpt lat="48.45287" lon="2.80228">
        <ele>100.11</ele>
        <time>2014-03-11T08:53:06Z</time>
      </trkpt>
      <trkpt lat="48.45292" lon="2.80222">
        <ele>100.11</ele>
        <time>2014-03-11T08:53:13Z</time>
      </trkpt>
      <trkpt lat="48.4531" lon="2.80208">
        <ele>99.63</ele>
        <time>2014-03-11T08:53:29Z</time>
      </trkpt>
      <trkpt lat="48.45322" lon="2.80196">
        <ele>99.15</ele>
        <time>2014-03-11T08:53:42Z</time>
      </trkpt>
      <trkpt lat="48.45323" lon="2.80195">
        <ele>99.63</ele>
        <time>2014-03-11T08:53:43Z</time>
      </trkpt>
      <trkpt lat="48.45348" lon="2.80173">
        <ele>100.6</ele>
        <time>2014-03-11T08:54:02Z</time>
      </trkpt>
      <trkpt lat="48.45362" lon="2.80157">
        <ele>101.08</ele>
        <time>2014-03-11T08:54:15Z</time>
      </trkpt>
      <trkpt lat="48.45382" lon="2.80138">
        <ele>99.15</ele>
        <time>2014-03-11T08:54:33Z</time>
      </trkpt>
      <trkpt lat="48.4539" lon="2.80127">
        <ele>98.67</ele>
        <time>2014-03-11T08:54:40Z</time>
      </trkpt>
      <trkpt lat="48.454" lon="2.80116">
        <ele>98.67</ele>
        <time>2014-03-11T08:54:50Z</time>
      </trkpt>
      <trkpt lat="48.45415" lon="2.80089">
        <ele>96.27</ele>
        <time>2014-03-11T08:55:07Z</time>
      </trkpt>
      <trkpt lat="48.45428" lon="2.8007">
        <ele>94.35</ele>
        <time>2014-03-11T08:55:20Z</time>
      </trkpt>
      <trkpt lat="48.45435" lon="2.8006">
        <ele>93.87</ele>
        <time>2014-03-11T08:55:27Z</time>
      </trkpt>
      <trkpt lat="48.45436" lon="2.80042">
        <ele>93.39</ele>
        <time>2014-03-11T08:55:36Z</time>
      </trkpt>
      <trkpt lat="48.45447" lon="2.80024">
        <ele>94.35</ele>
        <time>2014-03-11T08:55:48Z</time>
      </trkpt>
      <trkpt lat="48.45453" lon="2.80019">
        <ele>93.87</ele>
        <time>2014-03-11T08:55:53Z</time>
      </trkpt>
      <trkpt lat="48.45466" lon="2.79995">
        <ele>94.35</ele>
        <time>2014-03-11T08:56:08Z</time>
      </trkpt>
      <trkpt lat="48.45467" lon="2.79994">
        <ele>95.31</ele>
        <time>2014-03-11T08:56:13Z</time>
      </trkpt>
      <trkpt lat="48.45464" lon="2.79994">
        <ele>94.83</ele>
        <time>2014-03-11T08:56:18Z</time>
      </trkpt>
      <trkpt lat="48.45452" lon="2.79967">
        <ele>92.42</ele>
        <time>2014-03-11T08:56:36Z</time>
      </trkpt>
      <trkpt lat="48.45441" lon="2.79943">
        <ele>93.87</ele>
        <time>2014-03-11T08:56:49Z</time>
      </trkpt>
      <trkpt lat="48.4543" lon="2.79913">
        <ele>93.87</ele>
        <time>2014-03-11T08:57:04Z</time>
      </trkpt>
      <trkpt lat="48.45419" lon="2.79883">
        <ele>93.87</ele>
        <time>2014-03-11T08:57:21Z</time>
      </trkpt>
      <trkpt lat="48.45412" lon="2.79858">
        <ele>90.5</ele>
        <time>2014-03-11T08:57:35Z</time>
      </trkpt>
      <trkpt lat="48.45405" lon="2.79829">
        <ele>89.06</ele>
        <time>2014-03-11T08:57:50Z</time>
      </trkpt>
      <trkpt lat="48.454" lon="2.7981">
        <ele>90.5</ele>
        <time>2014-03-11T08:58:06Z</time>
      </trkpt>
      <trkpt lat="48.45396" lon="2.79793">
        <ele>90.98</ele>
        <time>2014-03-11T08:58:22Z</time>
      </trkpt>
      <trkpt lat="48.45391" lon="2.79758">
        <ele>92.9</ele>
        <time>2014-03-11T08:58:39Z</time>
      </trkpt>
      <trkpt lat="48.45388" lon="2.79743">
        <ele>91.46</ele>
        <time>2014-03-11T08:58:53Z</time>
      </trkpt>
      <trkpt lat="48.45386" lon="2.79726">
        <ele>90.5</ele>
        <time>2014-03-11T08:59:08Z</time>
      </trkpt>
      <trkpt lat="48.45385" lon="2.79722">
        <ele>90.98</ele>
        <time>2014-03-11T08:59:20Z</time>
      </trkpt>
      <trkpt lat="48.45392" lon="2.79709">
        <ele>90.98</ele>
        <time>2014-03-11T08:59:34Z</time>
      </trkpt>
      <trkpt lat="48.454" lon="2.79706">
        <ele>88.58</ele>
        <time>2014-03-11T08:59:50Z</time>
      </trkpt>
      <trkpt lat="48.45403" lon="2.79705">
        <ele>87.62</ele>
        <time>2014-03-11T08:59:52Z</time>
      </trkpt>
      <trkpt lat="48.45418" lon="2.79675">
        <ele>90.5</ele>
        <time>2014-03-11T09:00:11Z</time>
      </trkpt>
      <trkpt lat="48.45433" lon="2.79648">
        <ele>91.46</ele>
        <time>2014-03-11T09:00:25Z</time>
      </trkpt>
      <trkpt lat="48.45445" lon="2.7963">
        <ele>93.87</ele>
        <time>2014-03-11T09:00:38Z</time>
      </trkpt>
      <trkpt lat="48.45454" lon="2.79621">
        <ele>95.31</ele>
        <time>2014-03-11T09:00:50Z</time>
      </trkpt>
      <trkpt lat="48.45467" lon="2.79604">
        <ele>96.27</ele>
        <time>2014-03-11T09:01:05Z</time>
      </trkpt>
      <trkpt lat="48.45489" lon="2.79576">
        <ele>97.23</ele>
        <time>2014-03-11T09:01:24Z</time>
      </trkpt>
      <trkpt lat="48.45509" lon="2.7956">
        <ele>97.23</ele>
        <time>2014-03-11T09:01:42Z</time>
      </trkpt>
      <trkpt lat="48.45524" lon="2.79546">
        <ele>99.15</ele>
        <time>2014-03-11T09:01:54Z</time>
      </trkpt>
      <trkpt lat="48.45529" lon="2.79539">
        <ele>99.15</ele>
        <time>2014-03-11T09:01:58Z</time>
      </trkpt>
      <trkpt lat="48.45542" lon="2.79526">
        <ele>98.19</ele>
        <time>2014-03-11T09:02:14Z</time>
      </trkpt>
      <trkpt lat="48.45547" lon="2.79523">
        <ele>97.23</ele>
        <time>2014-03-11T09:02:28Z</time>
      </trkpt>
      <trkpt lat="48.45551" lon="2.79521">
        <ele>96.27</ele>
        <time>2014-03-11T09:02:49Z</time>
      </trkpt>
      <trkpt lat="48.45572" lon="2.79504">
        <ele>96.27</ele>
        <time>2014-03-11T09:03:08Z</time>
      </trkpt>
      <trkpt lat="48.45591" lon="2.79488">
        <ele>96.27</ele>
        <time>2014-03-11T09:03:25Z</time>
      </trkpt>
      <trkpt lat="48.45614" lon="2.79467">
        <ele>95.31</ele>
        <time>2014-03-11T09:03:43Z</time>
      </trkpt>
      <trkpt lat="48.45631" lon="2.79456">
        <ele>94.35</ele>
        <time>2014-03-11T09:03:59Z</time>
      </trkpt>
      <trkpt lat="48.45641" lon="2.7945">
        <ele>93.87</ele>
        <time>2014-03-11T09:04:14Z</time>
      </trkpt>
      <trkpt lat="48.45645" lon="2.79448">
        <ele>93.87</ele>
        <time>2014-03-11T09:04:17Z</time>
      </trkpt>
      <trkpt lat="48.45645" lon="2.79428">
        <ele>93.39</ele>
        <time>2014-03-11T09:04:29Z</time>
      </trkpt>
      <trkpt lat="48.45642" lon="2.79418">
        <ele>92.9</ele>
        <time>2014-03-11T09:04:34Z</time>
      </trkpt>
      <trkpt lat="48.45636" lon="2.79387">
        <ele>89.06</ele>
        <time>2014-03-11T09:04:51Z</time>
      </trkpt>
      <trkpt lat="48.4563" lon="2.79356">
        <ele>88.1</ele>
        <time>2014-03-11T09:05:09Z</time>
      </trkpt>
      <trkpt lat="48.45629" lon="2.79348">
        <ele>87.14</ele>
        <time>2014-03-11T09:05:14Z</time>
      </trkpt>
      <trkpt lat="48.45631" lon="2.793">
        <ele>86.66</ele>
        <time>2014-03-11T09:05:31Z</time>
      </trkpt>
      <trkpt lat="48.45631" lon="2.79287">
        <ele>87.14</ele>
        <time>2014-03-11T09:05:38Z</time>
      </trkpt>
      <trkpt lat="48.45627" lon="2.79256">
        <ele>83.77</ele>
        <time>2014-03-11T09:05:54Z</time>
      </trkpt>
      <trkpt lat="48.45627" lon="2.79244">
        <ele>83.77</ele>
        <time>2014-03-11T09:06:00Z</time>
      </trkpt>
      <trkpt lat="48.45629" lon="2.79206">
        <ele>86.66</ele>
        <time>2014-03-11T09:06:19Z</time>
      </trkpt>
      <trkpt lat="48.45631" lon="2.79171">
        <ele>88.1</ele>
        <time>2014-03-11T09:06:35Z</time>
      </trkpt>
      <trkpt lat="48.45629" lon="2.7914">
        <ele>88.1</ele>
        <time>2014-03-11T09:06:51Z</time>
      </trkpt>
      <trkpt lat="48.45633" lon="2.79108">
        <ele>86.18</ele>
        <time>2014-03-11T09:07:07Z</time>
      </trkpt>
      <trkpt lat="48.45634" lon="2.79074">
        <ele>80.41</ele>
        <time>2014-03-11T09:07:25Z</time>
      </trkpt>
      <trkpt lat="48.45637" lon="2.79041">
        <ele>77.52</ele>
        <time>2014-03-11T09:07:42Z</time>
      </trkpt>
      <trkpt lat="48.45642" lon="2.79019">
        <ele>74.64</ele>
        <time>2014-03-11T09:07:56Z</time>
      </trkpt>
      <trkpt lat="48.45659" lon="2.78993">
        <ele>71.76</ele>
        <time>2014-03-11T09:08:14Z</time>
      </trkpt>
      <trkpt lat="48.45679" lon="2.7897">
        <ele>68.39</ele>
        <time>2014-03-11T09:08:35Z</time>
      </trkpt>
      <trkpt lat="48.45694" lon="2.78957">
        <ele>66.95</ele>
        <time>2014-03-11T09:08:52Z</time>
      </trkpt>
      <trkpt lat="48.45709" lon="2.78941">
        <ele>63.1</ele>
        <time>2014-03-11T09:09:08Z</time>
      </trkpt>
      <trkpt lat="48.4572" lon="2.78912">
        <ele>61.18</ele>
        <time>2014-03-11T09:09:25Z</time>
      </trkpt>
      <trkpt lat="48.45717" lon="2.78893">
        <ele>58.3</ele>
        <time>2014-03-11T09:09:35Z</time>
      </trkpt>
      <trkpt lat="48.4571" lon="2.78855">
        <ele>58.3</ele>
        <time>2014-03-11T09:09:52Z</time>
      </trkpt>
      <trkpt lat="48.45695" lon="2.78824">
        <ele>59.26</ele>
        <time>2014-03-11T09:10:10Z</time>
      </trkpt>
      <trkpt lat="48.4568" lon="2.78799">
        <ele>57.82</ele>
        <time>2014-03-11T09:10:29Z</time>
      </trkpt>
      <trkpt lat="48.45669" lon="2.78787">
        <ele>59.26</ele>
        <time>2014-03-11T09:10:43Z</time>
      </trkpt>
      <trkpt lat="48.45645" lon="2.78766">
        <ele>57.82</ele>
        <time>2014-03-11T09:11:03Z</time>
      </trkpt>
      <trkpt lat="48.45638" lon="2.78759">
        <ele>57.34</ele>
        <time>2014-03-11T09:11:08Z</time>
      </trkpt>
      <trkpt lat="48.45629" lon="2.78735">
        <ele>56.37</ele>
        <time>2014-03-11T09:11:24Z</time>
      </trkpt>
      <trkpt lat="48.45628" lon="2.78733">
        <ele>56.86</ele>
        <time>2014-03-11T09:11:25Z</time>
      </trkpt>
      <trkpt lat="48.4563" lon="2.7869">
        <ele>54.93</ele>
        <time>2014-03-11T09:11:46Z</time>
      </trkpt>
      <trkpt lat="48.45638" lon="2.78663">
        <ele>55.41</ele>
        <time>2014-03-11T09:12:04Z</time>
      </trkpt>
      <trkpt lat="48.45639" lon="2.78661">
        <ele>55.41</ele>
        <time>2014-03-11T09:12:14Z</time>
      </trkpt>
      <trkpt lat="48.45657" lon="2.78633">
        <ele>51.09</ele>
        <time>2014-03-11T09:12:33Z</time>
      </trkpt>
      <trkpt lat="48.45674" lon="2.78604">
        <ele>46.76</ele>
        <time>2014-03-11T09:12:53Z</time>
      </trkpt>
      <trkpt lat="48.45691" lon="2.78585">
        <ele>40.51</ele>
        <time>2014-03-11T09:13:12Z</time>
      </trkpt>
      <trkpt lat="48.45708" lon="2.78561">
        <ele>40.51</ele>
        <time>2014-03-11T09:13:29Z</time>
      </trkpt>
      <trkpt lat="48.45718" lon="2.7852">
        <ele>45.8</ele>
        <time>2014-03-11T09:13:46Z</time>
      </trkpt>
      <trkpt lat="48.45726" lon="2.78477">
        <ele>50.61</ele>
        <time>2014-03-11T09:14:06Z</time>
      </trkpt>
      <trkpt lat="48.45728" lon="2.7847">
        <ele>49.65</ele>
        <time>2014-03-11T09:14:10Z</time>
      </trkpt>
      <trkpt lat="48.45739" lon="2.78446">
        <ele>48.2</ele>
        <time>2014-03-11T09:14:26Z</time>
      </trkpt>
      <trkpt lat="48.45751" lon="2.7841">
        <ele>46.76</ele>
        <time>2014-03-11T09:14:48Z</time>
      </trkpt>
      <trkpt lat="48.45761" lon="2.78381">
        <ele>49.65</ele>
        <time>2014-03-11T09:15:08Z</time>
      </trkpt>
      <trkpt lat="48.45772" lon="2.78344">
        <ele>51.09</ele>
        <time>2014-03-11T09:15:28Z</time>
      </trkpt>
      <trkpt lat="48.45776" lon="2.78306">
        <ele>52.53</ele>
        <time>2014-03-11T09:15:46Z</time>
      </trkpt>
      <trkpt lat="48.45777" lon="2.7829">
        <ele>53.97</ele>
        <time>2014-03-11T09:15:54Z</time>
      </trkpt>
      <trkpt lat="48.45756" lon="2.78287">
        <ele>56.37</ele>
        <time>2014-03-11T09:16:10Z</time>
      </trkpt>
      <trkpt lat="48.45731" lon="2.78283">
        <ele>56.86</ele>
        <time>2014-03-11T09:16:30Z</time>
      </trkpt>
      <trkpt lat="48.457" lon="2.7828">
        <ele>58.3</ele>
        <time>2014-03-11T09:16:55Z</time>
      </trkpt>
      <trkpt lat="48.4567" lon="2.78278">
        <ele>59.74</ele>
        <time>2014-03-11T09:17:18Z</time>
      </trkpt>
      <trkpt lat="48.45647" lon="2.78276">
        <ele>62.62</ele>
        <time>2014-03-11T09:17:37Z</time>
      </trkpt>
      <trkpt lat="48.45625" lon="2.78275">
        <ele>65.03</ele>
        <time>2014-03-11T09:17:56Z</time>
      </trkpt>
      <trkpt lat="48.4561" lon="2.78275">
        <ele>65.99</ele>
        <time>2014-03-11T09:18:09Z</time>
      </trkpt>
      <trkpt lat="48.45604" lon="2.78275">
        <ele>67.91</ele>
        <time>2014-03-11T09:18:14Z</time>
      </trkpt>
      <trkpt lat="48.45584" lon="2.7828">
        <ele>69.83</ele>
        <time>2014-03-11T09:18:32Z</time>
      </trkpt>
      <trkpt lat="48.45564" lon="2.78288">
        <ele>71.27</ele>
        <time>2014-03-11T09:18:51Z</time>
      </trkpt>
      <trkpt lat="48.45547" lon="2.78296">
        <ele>72.24</ele>
        <time>2014-03-11T09:19:10Z</time>
      </trkpt>
      <trkpt lat="48.45527" lon="2.78303">
        <ele>74.64</ele>
        <time>2014-03-11T09:19:29Z</time>
      </trkpt>
      <trkpt lat="48.45506" lon="2.783">
        <ele>76.56</ele>
        <time>2014-03-11T09:19:49Z</time>
      </trkpt>
      <trkpt lat="48.45487" lon="2.78293">
        <ele>78</ele>
        <time>2014-03-11T09:20:07Z</time>
      </trkpt>
      <trkpt lat="48.45482" lon="2.78288">
        <ele>78.97</ele>
        <time>2014-03-11T09:20:21Z</time>
      </trkpt>
      <trkpt lat="48.45473" lon="2.78284">
        <ele>79.45</ele>
        <time>2014-03-11T09:20:39Z</time>
      </trkpt>
      <trkpt lat="48.45451" lon="2.7827">
        <ele>82.33</ele>
        <time>2014-03-11T09:20:58Z</time>
      </trkpt>
      <trkpt lat="48.45428" lon="2.78258">
        <ele>85.69</ele>
        <time>2014-03-11T09:21:17Z</time>
      </trkpt>
      <trkpt lat="48.45416" lon="2.78253">
        <ele>87.14</ele>
        <time>2014-03-11T09:21:30Z</time>
      </trkpt>
      <trkpt lat="48.45391" lon="2.78248">
        <ele>88.1</ele>
        <time>2014-03-11T09:21:51Z</time>
      </trkpt>
      <trkpt lat="48.45362" lon="2.78246">
        <ele>90.02</ele>
        <time>2014-03-11T09:22:13Z</time>
      </trkpt>
      <trkpt lat="48.45334" lon="2.78242">
        <ele>90.5</ele>
        <time>2014-03-11T09:22:35Z</time>
      </trkpt>
      <trkpt lat="48.45324" lon="2.7824">
        <ele>89.54</ele>
        <time>2014-03-11T09:22:48Z</time>
      </trkpt>
      <trkpt lat="48.45301" lon="2.78226">
        <ele>90.98</ele>
        <time>2014-03-11T09:23:07Z</time>
      </trkpt>
      <trkpt lat="48.45284" lon="2.78211">
        <ele>92.42</ele>
        <time>2014-03-11T09:23:23Z</time>
      </trkpt>
      <trkpt lat="48.45277" lon="2.78203">
        <ele>91.94</ele>
        <time>2014-03-11T09:23:38Z</time>
      </trkpt>
      <trkpt lat="48.45266" lon="2.78181">
        <ele>93.87</ele>
        <time>2014-03-11T09:23:53Z</time>
      </trkpt>
      <trkpt lat="48.45259" lon="2.78157">
        <ele>94.35</ele>
        <time>2014-03-11T09:24:08Z</time>
      </trkpt>
      <trkpt lat="48.45251" lon="2.78128">
        <ele>95.31</ele>
        <time>2014-03-11T09:24:24Z</time>
      </trkpt>
      <trkpt lat="48.45247" lon="2.78109">
        <ele>94.35</ele>
        <time>2014-03-11T09:24:37Z</time>
      </trkpt>
      <trkpt lat="48.4524" lon="2.78078">
        <ele>93.87</ele>
        <time>2014-03-11T09:24:52Z</time>
      </trkpt>
      <trkpt lat="48.45233" lon="2.78051">
        <ele>94.35</ele>
        <time>2014-03-11T09:25:08Z</time>
      </trkpt>
      <trkpt lat="48.45232" lon="2.78042">
        <ele>95.31</ele>
        <time>2014-03-11T09:25:30Z</time>
      </trkpt>
      <trkpt lat="48.45227" lon="2.78017">
        <ele>95.79</ele>
        <time>2014-03-11T09:25:44Z</time>
      </trkpt>
      <trkpt lat="48.4522" lon="2.77985">
        <ele>96.75</ele>
        <time>2014-03-11T09:25:59Z</time>
      </trkpt>
      <trkpt lat="48.45216" lon="2.77954">
        <ele>97.71</ele>
        <time>2014-03-11T09:26:13Z</time>
      </trkpt>
      <trkpt lat="48.45211" lon="2.77925">
        <ele>99.15</ele>
        <time>2014-03-11T09:26:27Z</time>
      </trkpt>
      <trkpt lat="48.4521" lon="2.77901">
        <ele>98.67</ele>
        <time>2014-03-11T09:26:39Z</time>
      </trkpt>
      <trkpt lat="48.45208" lon="2.77882">
        <ele>98.19</ele>
        <time>2014-03-11T09:26:50Z</time>
      </trkpt>
      <trkpt lat="48.45202" lon="2.77847">
        <ele>98.19</ele>
        <time>2014-03-11T09:27:06Z</time>
      </trkpt>
      <trkpt lat="48.45198" lon="2.77821">
        <ele>98.19</ele>
        <time>2014-03-11T09:27:21Z</time>
      </trkpt>
      <trkpt lat="48.45193" lon="2.77791">
        <ele>97.23</ele>
        <time>2014-03-11T09:27:37Z</time>
      </trkpt>
      <trkpt lat="48.45189" lon="2.7777">
        <ele>95.31</ele>
        <time>2014-03-11T09:27:50Z</time>
      </trkpt>
      <trkpt lat="48.45185" lon="2.77741">
        <ele>95.79</ele>
        <time>2014-03-11T09:28:04Z</time>
      </trkpt>
      <trkpt lat="48.45179" lon="2.77714">
        <ele>96.75</ele>
        <time>2014-03-11T09:28:19Z</time>
      </trkpt>
      <trkpt lat="48.45174" lon="2.77685">
        <ele>96.75</ele>
        <time>2014-03-11T09:28:33Z</time>
      </trkpt>
      <trkpt lat="48.45165" lon="2.77651">
        <ele>97.23</ele>
        <time>2014-03-11T09:28:50Z</time>
      </trkpt>
      <trkpt lat="48.45157" lon="2.77616">
        <ele>98.19</ele>
        <time>2014-03-11T09:29:08Z</time>
      </trkpt>
      <trkpt lat="48.4515" lon="2.7758">
        <ele>97.23</ele>
        <time>2014-03-11T09:29:27Z</time>
      </trkpt>
      <trkpt lat="48.45142" lon="2.77546">
        <ele>97.71</ele>
        <time>2014-03-11T09:29:44Z</time>
      </trkpt>
      <trkpt lat="48.45137" lon="2.77519">
        <ele>98.67</ele>
        <time>2014-03-11T09:29:58Z</time>
      </trkpt>
      <trkpt lat="48.45131" lon="2.77486">
        <ele>95.31</ele>
        <time>2014-03-11T09:30:16Z</time>
      </trkpt>
      <trkpt lat="48.45128" lon="2.77456">
        <ele>94.83</ele>
        <time>2014-03-11T09:30:31Z</time>
      </trkpt>
      <trkpt lat="48.45125" lon="2.77427">
        <ele>93.87</ele>
        <time>2014-03-11T09:30:46Z</time>
      </trkpt>
      <trkpt lat="48.45124" lon="2.77406">
        <ele>94.35</ele>
        <time>2014-03-11T09:30:58Z</time>
      </trkpt>
      <trkpt lat="48.45125" lon="2.77385">
        <ele>95.31</ele>
        <time>2014-03-11T09:31:12Z</time>
      </trkpt>
      <trkpt lat="48.45125" lon="2.77378">
        <ele>96.75</ele>
        <time>2014-03-11T09:31:29Z</time>
      </trkpt>
      <trkpt lat="48.45127" lon="2.77358">
        <ele>95.79</ele>
        <time>2014-03-11T09:31:40Z</time>
      </trkpt>
      <trkpt lat="48.45128" lon="2.77329">
        <ele>90.98</ele>
        <time>2014-03-11T09:31:55Z</time>
      </trkpt>
      <trkpt lat="48.45128" lon="2.77292">
        <ele>93.39</ele>
        <time>2014-03-11T09:32:10Z</time>
      </trkpt>
      <trkpt lat="48.4513" lon="2.77266">
        <ele>95.31</ele>
        <time>2014-03-11T09:32:23Z</time>
      </trkpt>
      <trkpt lat="48.45128" lon="2.77242">
        <ele>94.35</ele>
        <time>2014-03-11T09:32:34Z</time>
      </trkpt>
      <trkpt lat="48.45127" lon="2.77218">
        <ele>92.9</ele>
        <time>2014-03-11T09:32:47Z</time>
      </trkpt>
      <trkpt lat="48.45124" lon="2.77199">
        <ele>92.9</ele>
        <time>2014-03-11T09:32:58Z</time>
      </trkpt>
      <trkpt lat="48.45118" lon="2.7718">
        <ele>92.9</ele>
        <time>2014-03-11T09:33:09Z</time>
      </trkpt>
      <trkpt lat="48.45118" lon="2.77184">
        <ele>91.94</ele>
        <time>2014-03-11T09:33:25Z</time>
      </trkpt>
      <trkpt lat="48.45119" lon="2.77185">
        <ele>91.94</ele>
        <time>2014-03-11T09:33:48Z</time>
      </trkpt>
      <trkpt lat="48.45118" lon="2.77184">
        <ele>92.42</ele>
        <time>2014-03-11T09:34:07Z</time>
      </trkpt>
      <trkpt lat="48.45118" lon="2.77185">
        <ele>91.46</ele>
        <time>2014-03-11T09:34:31Z</time>
      </trkpt>
      <trkpt lat="48.45119" lon="2.77185">
        <ele>91.46</ele>
        <time>2014-03-11T09:34:50Z</time>
      </trkpt>
      <trkpt lat="48.45119" lon="2.77185">
        <ele>91.46</ele>
        <time>2014-03-11T09:35:15Z</time>
      </trkpt>
      <trkpt lat="48.4512" lon="2.77186">
        <ele>91.94</ele>
        <time>2014-03-11T09:35:36Z</time>
      </trkpt>
      <trkpt lat="48.4512" lon="2.77186">
        <ele>91.94</ele>
        <time>2014-03-11T09:35:59Z</time>
      </trkpt>
      <trkpt lat="48.4512" lon="2.77185">
        <ele>91.94</ele>
        <time>2014-03-11T09:36:18Z</time>
      </trkpt>
      <trkpt lat="48.45121" lon="2.77186">
        <ele>91.94</ele>
        <time>2014-03-11T09:36:45Z</time>
      </trkpt>
      <trkpt lat="48.45122" lon="2.77187">
        <ele>92.42</ele>
        <time>2014-03-11T09:37:11Z</time>
      </trkpt>
      <trkpt lat="48.45121" lon="2.77186">
        <ele>92.42</ele>
        <time>2014-03-11T09:37:39Z</time>
      </trkpt>
      <trkpt lat="48.45121" lon="2.77187">
        <ele>92.9</ele>
        <time>2014-03-11T09:38:01Z</time>
      </trkpt>
      <trkpt lat="48.45121" lon="2.77186">
        <ele>92.9</ele>
        <time>2014-03-11T09:38:28Z</time>
      </trkpt>
      <trkpt lat="48.45122" lon="2.77187">
        <ele>92.42</ele>
        <time>2014-03-11T09:38:53Z</time>
      </trkpt>
      <trkpt lat="48.45122" lon="2.77186">
        <ele>92.42</ele>
        <time>2014-03-11T09:39:19Z</time>
      </trkpt>
      <trkpt lat="48.45122" lon="2.77187">
        <ele>92.9</ele>
        <time>2014-03-11T09:39:48Z</time>
      </trkpt>
      <trkpt lat="48.45122" lon="2.77186">
        <ele>92.9</ele>
        <time>2014-03-11T09:40:14Z</time>
      </trkpt>
      <trkpt lat="48.45121" lon="2.77187">
        <ele>92.9</ele>
        <time>2014-03-11T09:40:45Z</time>
      </trkpt>
      <trkpt lat="48.45121" lon="2.77187">
        <ele>92.9</ele>
        <time>2014-03-11T09:41:11Z</time>
      </trkpt>
      <trkpt lat="48.45123" lon="2.77187">
        <ele>93.39</ele>
        <time>2014-03-11T09:41:37Z</time>
      </trkpt>
      <trkpt lat="48.45125" lon="2.77188">
        <ele>92.9</ele>
        <time>2014-03-11T09:42:08Z</time>
      </trkpt>
      <trkpt lat="48.45123" lon="2.77189">
        <ele>91.94</ele>
        <time>2014-03-11T09:42:24Z</time>
      </trkpt>
      <trkpt lat="48.45121" lon="2.7719">
        <ele>92.42</ele>
        <time>2014-03-11T09:42:43Z</time>
      </trkpt>
      <trkpt lat="48.45118" lon="2.77169">
        <ele>94.35</ele>
        <time>2014-03-11T09:42:58Z</time>
      </trkpt>
      <trkpt lat="48.45109" lon="2.77134">
        <ele>94.83</ele>
        <time>2014-03-11T09:43:13Z</time>
      </trkpt>
      <trkpt lat="48.45103" lon="2.77105">
        <ele>93.87</ele>
        <time>2014-03-11T09:43:31Z</time>
      </trkpt>
      <trkpt lat="48.45096" lon="2.77073">
        <ele>94.83</ele>
        <time>2014-03-11T09:43:50Z</time>
      </trkpt>
      <trkpt lat="48.45093" lon="2.7704">
        <ele>95.31</ele>
        <time>2014-03-11T09:44:08Z</time>
      </trkpt>
      <trkpt lat="48.45087" lon="2.7701">
        <ele>91.46</ele>
        <time>2014-03-11T09:44:26Z</time>
      </trkpt>
      <trkpt lat="48.45086" lon="2.7701">
        <ele>90.98</ele>
        <time>2014-03-11T09:44:27Z</time>
      </trkpt>
      <trkpt lat="48.45056" lon="2.77005">
        <ele>88.58</ele>
        <time>2014-03-11T09:44:47Z</time>
      </trkpt>
      <trkpt lat="48.45031" lon="2.7701">
        <ele>87.62</ele>
        <time>2014-03-11T09:45:08Z</time>
      </trkpt>
      <trkpt lat="48.45009" lon="2.77014">
        <ele>85.21</ele>
        <time>2014-03-11T09:45:27Z</time>
      </trkpt>
      <trkpt lat="48.44998" lon="2.76997">
        <ele>84.25</ele>
        <time>2014-03-11T09:45:43Z</time>
      </trkpt>
      <trkpt lat="48.44992" lon="2.76966">
        <ele>83.29</ele>
        <time>2014-03-11T09:46:00Z</time>
      </trkpt>
      <trkpt lat="48.44987" lon="2.76934">
        <ele>81.85</ele>
        <time>2014-03-11T09:46:17Z</time>
      </trkpt>
      <trkpt lat="48.44991" lon="2.76906">
        <ele>80.41</ele>
        <time>2014-03-11T09:46:34Z</time>
      </trkpt>
      <trkpt lat="48.44991" lon="2.7689">
        <ele>78.48</ele>
        <time>2014-03-11T09:46:43Z</time>
      </trkpt>
      <trkpt lat="48.44994" lon="2.76861">
        <ele>78</ele>
        <time>2014-03-11T09:46:59Z</time>
      </trkpt>
      <trkpt lat="48.44996" lon="2.76831">
        <ele>79.45</ele>
        <time>2014-03-11T09:47:15Z</time>
      </trkpt>
      <trkpt lat="48.45001" lon="2.768">
        <ele>77.04</ele>
        <time>2014-03-11T09:47:32Z</time>
      </trkpt>
      <trkpt lat="48.45005" lon="2.7677">
        <ele>75.12</ele>
        <time>2014-03-11T09:47:49Z</time>
      </trkpt>
      <trkpt lat="48.45003" lon="2.76742">
        <ele>74.16</ele>
        <time>2014-03-11T09:48:03Z</time>
      </trkpt>
      <trkpt lat="48.45002" lon="2.76736">
        <ele>74.16</ele>
        <time>2014-03-11T09:48:06Z</time>
      </trkpt>
      <trkpt lat="48.44991" lon="2.76709">
        <ele>71.76</ele>
        <time>2014-03-11T09:48:22Z</time>
      </trkpt>
      <trkpt lat="48.44985" lon="2.76703">
        <ele>73.2</ele>
        <time>2014-03-11T09:48:28Z</time>
      </trkpt>
      <trkpt lat="48.44968" lon="2.76699">
        <ele>73.68</ele>
        <time>2014-03-11T09:48:44Z</time>
      </trkpt>
      <trkpt lat="48.4496" lon="2.76689">
        <ele>74.16</ele>
        <time>2014-03-11T09:48:56Z</time>
      </trkpt>
      <trkpt lat="48.44955" lon="2.76693">
        <ele>71.27</ele>
        <time>2014-03-11T09:49:13Z</time>
      </trkpt>
      <trkpt lat="48.44952" lon="2.76694">
        <ele>71.76</ele>
        <time>2014-03-11T09:49:16Z</time>
      </trkpt>
      <trkpt lat="48.44931" lon="2.76692">
        <ele>71.76</ele>
        <time>2014-03-11T09:49:32Z</time>
      </trkpt>
      <trkpt lat="48.44918" lon="2.76689">
        <ele>73.68</ele>
        <time>2014-03-11T09:49:44Z</time>
      </trkpt>
      <trkpt lat="48.44921" lon="2.76695">
        <ele>73.68</ele>
        <time>2014-03-11T09:49:58Z</time>
      </trkpt>
      <trkpt lat="48.44921" lon="2.76701">
        <ele>70.79</ele>
        <time>2014-03-11T09:50:19Z</time>
      </trkpt>
      <trkpt lat="48.4492" lon="2.76701">
        <ele>69.83</ele>
        <time>2014-03-11T09:50:28Z</time>
      </trkpt>
      <trkpt lat="48.4492" lon="2.76694">
        <ele>69.35</ele>
        <time>2014-03-11T09:50:33Z</time>
      </trkpt>
      <trkpt lat="48.449" lon="2.7669">
        <ele>71.76</ele>
        <time>2014-03-11T09:50:51Z</time>
      </trkpt>
      <trkpt lat="48.44901" lon="2.76689">
        <ele>71.27</ele>
        <time>2014-03-11T09:51:09Z</time>
      </trkpt>
      <trkpt lat="48.44901" lon="2.76688">
        <ele>71.76</ele>
        <time>2014-03-11T09:51:28Z</time>
      </trkpt>
      <trkpt lat="48.44901" lon="2.76685">
        <ele>72.24</ele>
        <time>2014-03-11T09:51:37Z</time>
      </trkpt>
      <trkpt lat="48.44923" lon="2.76653">
        <ele>66.95</ele>
        <time>2014-03-11T09:52:01Z</time>
      </trkpt>
      <trkpt lat="48.4493" lon="2.76626">
        <ele>62.14</ele>
        <time>2014-03-11T09:52:17Z</time>
      </trkpt>
      <trkpt lat="48.44932" lon="2.76601">
        <ele>58.78</ele>
        <time>2014-03-11T09:52:32Z</time>
      </trkpt>
      <trkpt lat="48.44931" lon="2.76586">
        <ele>54.45</ele>
        <time>2014-03-11T09:52:49Z</time>
      </trkpt>
      <trkpt lat="48.44931" lon="2.76586">
        <ele>54.45</ele>
        <time>2014-03-11T09:52:52Z</time>
      </trkpt>
      <trkpt lat="48.44928" lon="2.76582">
        <ele>53.97</ele>
        <time>2014-03-11T09:52:56Z</time>
      </trkpt>
      <trkpt lat="48.44925" lon="2.76585">
        <ele>54.45</ele>
        <time>2014-03-11T09:53:08Z</time>
      </trkpt>
      <trkpt lat="48.44924" lon="2.76588">
        <ele>53.97</ele>
        <time>2014-03-11T09:53:36Z</time>
      </trkpt>
      <trkpt lat="48.44924" lon="2.7657">
        <ele>54.93</ele>
        <time>2014-03-11T09:53:51Z</time>
      </trkpt>
      <trkpt lat="48.44923" lon="2.76564">
        <ele>54.93</ele>
        <time>2014-03-11T09:53:54Z</time>
      </trkpt>
      <trkpt lat="48.44923" lon="2.76543">
        <ele>54.93</ele>
        <time>2014-03-11T09:54:05Z</time>
      </trkpt>
      <trkpt lat="48.44926" lon="2.76527">
        <ele>54.93</ele>
        <time>2014-03-11T09:54:16Z</time>
      </trkpt>
      <trkpt lat="48.44917" lon="2.76511">
        <ele>54.45</ele>
        <time>2014-03-11T09:54:31Z</time>
      </trkpt>
      <trkpt lat="48.44912" lon="2.76494">
        <ele>54.93</ele>
        <time>2014-03-11T09:54:45Z</time>
      </trkpt>
      <trkpt lat="48.44913" lon="2.76498">
        <ele>54.45</ele>
        <time>2014-03-11T09:54:48Z</time>
      </trkpt>
      <trkpt lat="48.44925" lon="2.76517">
        <ele>53.01</ele>
        <time>2014-03-11T09:55:05Z</time>
      </trkpt>
      <trkpt lat="48.44928" lon="2.76523">
        <ele>52.53</ele>
        <time>2014-03-11T09:55:14Z</time>
      </trkpt>
      <trkpt lat="48.44948" lon="2.76537">
        <ele>53.49</ele>
        <time>2014-03-11T09:55:32Z</time>
      </trkpt>
      <trkpt lat="48.44949" lon="2.76536">
        <ele>53.49</ele>
        <time>2014-03-11T09:55:33Z</time>
      </trkpt>
      <trkpt lat="48.44971" lon="2.76524">
        <ele>57.34</ele>
        <time>2014-03-11T09:55:53Z</time>
      </trkpt>
      <trkpt lat="48.44991" lon="2.7651">
        <ele>56.86</ele>
        <time>2014-03-11T09:56:11Z</time>
      </trkpt>
      <trkpt lat="48.44996" lon="2.76509">
        <ele>56.86</ele>
        <time>2014-03-11T09:56:15Z</time>
      </trkpt>
      <trkpt lat="48.45021" lon="2.76489">
        <ele>53.97</ele>
        <time>2014-03-11T09:56:37Z</time>
      </trkpt>
      <trkpt lat="48.45027" lon="2.76473">
        <ele>54.45</ele>
        <time>2014-03-11T09:56:46Z</time>
      </trkpt>
      <trkpt lat="48.45044" lon="2.76441">
        <ele>52.53</ele>
        <time>2014-03-11T09:57:07Z</time>
      </trkpt>
      <trkpt lat="48.45061" lon="2.76404">
        <ele>51.57</ele>
        <time>2014-03-11T09:57:30Z</time>
      </trkpt>
      <trkpt lat="48.45076" lon="2.76375">
        <ele>51.09</ele>
        <time>2014-03-11T09:57:49Z</time>
      </trkpt>
      <trkpt lat="48.45085" lon="2.76359">
        <ele>48.68</ele>
        <time>2014-03-11T09:58:00Z</time>
      </trkpt>
      <trkpt lat="48.45096" lon="2.7633">
        <ele>43.4</ele>
        <time>2014-03-11T09:58:20Z</time>
      </trkpt>
      <trkpt lat="48.45111" lon="2.76304">
        <ele>43.88</ele>
        <time>2014-03-11T09:58:37Z</time>
      </trkpt>
      <trkpt lat="48.45114" lon="2.76288">
        <ele>48.2</ele>
        <time>2014-03-11T10:05:57Z</time>
      </trkpt>
      <trkpt lat="48.4511" lon="2.76279">
        <ele>47.24</ele>
        <time>2014-03-11T10:06:04Z</time>
      </trkpt>
      <trkpt lat="48.45101" lon="2.76264">
        <ele>45.8</ele>
        <time>2014-03-11T10:06:15Z</time>
      </trkpt>
      <trkpt lat="48.45101" lon="2.76267">
        <ele>45.32</ele>
        <time>2014-03-11T10:06:27Z</time>
      </trkpt>
      <trkpt lat="48.45101" lon="2.76272">
        <ele>44.84</ele>
        <time>2014-03-11T10:06:48Z</time>
      </trkpt>
      <trkpt lat="48.45101" lon="2.76274">
        <ele>44.84</ele>
        <time>2014-03-11T10:07:09Z</time>
      </trkpt>
      <trkpt lat="48.45102" lon="2.76273">
        <ele>45.32</ele>
        <time>2014-03-11T10:07:37Z</time>
      </trkpt>
      <trkpt lat="48.45102" lon="2.76275">
        <ele>45.32</ele>
        <time>2014-03-11T10:08:04Z</time>
      </trkpt>
      <trkpt lat="48.45103" lon="2.76274">
        <ele>44.84</ele>
        <time>2014-03-11T10:08:38Z</time>
      </trkpt>
      <trkpt lat="48.45102" lon="2.76275">
        <ele>45.32</ele>
        <time>2014-03-11T10:09:00Z</time>
      </trkpt>
      <trkpt lat="48.45102" lon="2.76274">
        <ele>45.8</ele>
        <time>2014-03-11T10:09:19Z</time>
      </trkpt>
      <trkpt lat="48.45102" lon="2.76273">
        <ele>45.32</ele>
        <time>2014-03-11T10:09:39Z</time>
      </trkpt>
      <trkpt lat="48.45102" lon="2.76269">
        <ele>43.4</ele>
        <time>2014-03-11T10:10:04Z</time>
      </trkpt>
      <trkpt lat="48.45102" lon="2.7627">
        <ele>43.4</ele>
        <time>2014-03-11T10:10:15Z</time>
      </trkpt>
      <trkpt lat="48.45101" lon="2.76272">
        <ele>42.92</ele>
        <time>2014-03-11T10:10:26Z</time>
      </trkpt>
      <trkpt lat="48.45101" lon="2.76271">
        <ele>41.95</ele>
        <time>2014-03-11T10:10:42Z</time>
      </trkpt>
      <trkpt lat="48.45099" lon="2.76271">
        <ele>41.47</ele>
        <time>2014-03-11T10:10:47Z</time>
      </trkpt>
      <trkpt lat="48.45094" lon="2.76266">
        <ele>41.47</ele>
        <time>2014-03-11T10:10:51Z</time>
      </trkpt>
      <trkpt lat="48.45089" lon="2.7626">
        <ele>40.99</ele>
        <time>2014-03-11T10:10:57Z</time>
      </trkpt>
      <trkpt lat="48.45087" lon="2.76257">
        <ele>40.99</ele>
        <time>2014-03-11T10:10:59Z</time>
      </trkpt>
      <trkpt lat="48.45074" lon="2.76235">
        <ele>41.47</ele>
        <time>2014-03-11T10:11:14Z</time>
      </trkpt>
      <trkpt lat="48.45066" lon="2.76222">
        <ele>40.51</ele>
        <time>2014-03-11T10:11:23Z</time>
      </trkpt>
      <trkpt lat="48.45055" lon="2.76211">
        <ele>40.99</ele>
        <time>2014-03-11T10:11:33Z</time>
      </trkpt>
      <trkpt lat="48.45043" lon="2.76192">
        <ele>42.44</ele>
        <time>2014-03-11T10:11:48Z</time>
      </trkpt>
      <trkpt lat="48.45045" lon="2.76192">
        <ele>40.99</ele>
        <time>2014-03-11T10:12:07Z</time>
      </trkpt>
      <trkpt lat="48.45045" lon="2.76178">
        <ele>39.07</ele>
        <time>2014-03-11T10:12:22Z</time>
      </trkpt>
      <trkpt lat="48.45043" lon="2.76172">
        <ele>36.67</ele>
        <time>2014-03-11T10:12:41Z</time>
      </trkpt>
      <trkpt lat="48.45044" lon="2.76172">
        <ele>38.59</ele>
        <time>2014-03-11T10:12:51Z</time>
      </trkpt>
      <trkpt lat="48.45037" lon="2.76169">
        <ele>36.67</ele>
        <time>2014-03-11T10:13:07Z</time>
      </trkpt>
      <trkpt lat="48.45031" lon="2.76165">
        <ele>37.63</ele>
        <time>2014-03-11T10:13:11Z</time>
      </trkpt>
      <trkpt lat="48.45013" lon="2.76153">
        <ele>38.59</ele>
        <time>2014-03-11T10:13:27Z</time>
      </trkpt>
      <trkpt lat="48.44994" lon="2.76132">
        <ele>39.07</ele>
        <time>2014-03-11T10:13:55Z</time>
      </trkpt>
      <trkpt lat="48.44988" lon="2.76115">
        <ele>39.55</ele>
        <time>2014-03-11T10:14:15Z</time>
      </trkpt>
      <trkpt lat="48.44994" lon="2.7611">
        <ele>48.2</ele>
        <time>2014-03-11T10:14:37Z</time>
      </trkpt>
      <trkpt lat="48.44992" lon="2.76111">
        <ele>49.65</ele>
        <time>2014-03-11T10:14:42Z</time>
      </trkpt>
      <trkpt lat="48.44981" lon="2.76093">
        <ele>48.2</ele>
        <time>2014-03-11T10:14:56Z</time>
      </trkpt>
      <trkpt lat="48.44976" lon="2.7609">
        <ele>48.2</ele>
        <time>2014-03-11T10:15:08Z</time>
      </trkpt>
      <trkpt lat="48.44964" lon="2.7608">
        <ele>47.72</ele>
        <time>2014-03-11T10:15:20Z</time>
      </trkpt>
      <trkpt lat="48.44953" lon="2.76063">
        <ele>47.24</ele>
        <time>2014-03-11T10:15:34Z</time>
      </trkpt>
      <trkpt lat="48.44942" lon="2.76043">
        <ele>49.16</ele>
        <time>2014-03-11T10:15:50Z</time>
      </trkpt>
      <trkpt lat="48.44942" lon="2.76041">
        <ele>49.16</ele>
        <time>2014-03-11T10:15:51Z</time>
      </trkpt>
      <trkpt lat="48.44943" lon="2.76035">
        <ele>50.13</ele>
        <time>2014-03-11T10:15:59Z</time>
      </trkpt>
      <trkpt lat="48.44939" lon="2.76016">
        <ele>49.65</ele>
        <time>2014-03-11T10:16:15Z</time>
      </trkpt>
      <trkpt lat="48.44937" lon="2.76016">
        <ele>49.65</ele>
        <time>2014-03-11T10:16:39Z</time>
      </trkpt>
      <trkpt lat="48.44937" lon="2.76016">
        <ele>49.65</ele>
        <time>2014-03-11T10:16:40Z</time>
      </trkpt>
      <trkpt lat="48.44926" lon="2.75999">
        <ele>46.76</ele>
        <time>2014-03-11T10:16:56Z</time>
      </trkpt>
      <trkpt lat="48.4492" lon="2.75991">
        <ele>46.28</ele>
        <time>2014-03-11T10:17:18Z</time>
      </trkpt>
      <trkpt lat="48.44912" lon="2.75979">
        <ele>45.32</ele>
        <time>2014-03-11T10:17:32Z</time>
      </trkpt>
      <trkpt lat="48.44906" lon="2.75973">
        <ele>44.36</ele>
        <time>2014-03-11T10:17:50Z</time>
      </trkpt>
      <trkpt lat="48.44901" lon="2.75969">
        <ele>45.32</ele>
        <time>2014-03-11T10:17:55Z</time>
      </trkpt>
      <trkpt lat="48.44886" lon="2.75953">
        <ele>45.8</ele>
        <time>2014-03-11T10:18:11Z</time>
      </trkpt>
      <trkpt lat="48.44879" lon="2.75942">
        <ele>47.24</ele>
        <time>2014-03-11T10:18:24Z</time>
      </trkpt>
      <trkpt lat="48.44866" lon="2.75927">
        <ele>47.72</ele>
        <time>2014-03-11T10:18:40Z</time>
      </trkpt>
      <trkpt lat="48.44846" lon="2.75901">
        <ele>46.28</ele>
        <time>2014-03-11T10:18:57Z</time>
      </trkpt>
      <trkpt lat="48.4483" lon="2.75875">
        <ele>50.13</ele>
        <time>2014-03-11T10:19:11Z</time>
      </trkpt>
      <trkpt lat="48.4482" lon="2.75854">
        <ele>49.16</ele>
        <time>2014-03-11T10:19:25Z</time>
      </trkpt>
      <trkpt lat="48.44812" lon="2.75828">
        <ele>48.68</ele>
        <time>2014-03-11T10:19:41Z</time>
      </trkpt>
      <trkpt lat="48.44807" lon="2.75819">
        <ele>47.72</ele>
        <time>2014-03-11T10:19:47Z</time>
      </trkpt>
      <trkpt lat="48.44802" lon="2.75806">
        <ele>46.76</ele>
        <time>2014-03-11T10:20:04Z</time>
      </trkpt>
      <trkpt lat="48.44801" lon="2.75802">
        <ele>46.76</ele>
        <time>2014-03-11T10:20:06Z</time>
      </trkpt>
      <trkpt lat="48.44794" lon="2.75778">
        <ele>43.88</ele>
        <time>2014-03-11T10:20:19Z</time>
      </trkpt>
      <trkpt lat="48.44792" lon="2.7576">
        <ele>42.44</ele>
        <time>2014-03-11T10:20:34Z</time>
      </trkpt>
      <trkpt lat="48.44794" lon="2.75759">
        <ele>40.51</ele>
        <time>2014-03-11T10:21:02Z</time>
      </trkpt>
      <trkpt lat="48.44794" lon="2.75761">
        <ele>40.99</ele>
        <time>2014-03-11T10:21:21Z</time>
      </trkpt>
      <trkpt lat="48.44781" lon="2.75757">
        <ele>40.03</ele>
        <time>2014-03-11T10:21:36Z</time>
      </trkpt>
      <trkpt lat="48.44777" lon="2.7575">
        <ele>40.03</ele>
        <time>2014-03-11T10:21:43Z</time>
      </trkpt>
      <trkpt lat="48.4477" lon="2.7573">
        <ele>40.51</ele>
        <time>2014-03-11T10:21:55Z</time>
      </trkpt>
      <trkpt lat="48.44769" lon="2.75707">
        <ele>42.44</ele>
        <time>2014-03-11T10:22:06Z</time>
      </trkpt>
      <trkpt lat="48.44765" lon="2.75704">
        <ele>43.88</ele>
        <time>2014-03-11T10:22:26Z</time>
      </trkpt>
      <trkpt lat="48.44764" lon="2.75703">
        <ele>44.36</ele>
        <time>2014-03-11T10:22:34Z</time>
      </trkpt>
      <trkpt lat="48.44761" lon="2.75703">
        <ele>43.88</ele>
        <time>2014-03-11T10:22:37Z</time>
      </trkpt>
      <trkpt lat="48.44752" lon="2.75706">
        <ele>42.44</ele>
        <time>2014-03-11T10:22:45Z</time>
      </trkpt>
      <trkpt lat="48.44742" lon="2.75707">
        <ele>40.51</ele>
        <time>2014-03-11T10:22:55Z</time>
      </trkpt>
      <trkpt lat="48.44733" lon="2.7569">
        <ele>40.03</ele>
        <time>2014-03-11T10:23:10Z</time>
      </trkpt>
      <trkpt lat="48.44722" lon="2.75676">
        <ele>39.07</ele>
        <time>2014-03-11T10:23:23Z</time>
      </trkpt>
      <trkpt lat="48.4471" lon="2.75648">
        <ele>42.44</ele>
        <time>2014-03-11T10:23:38Z</time>
      </trkpt>
      <trkpt lat="48.44697" lon="2.75627">
        <ele>41.95</ele>
        <time>2014-03-11T10:23:53Z</time>
      </trkpt>
      <trkpt lat="48.44687" lon="2.75605">
        <ele>41.47</ele>
        <time>2014-03-11T10:24:07Z</time>
      </trkpt>
      <trkpt lat="48.44684" lon="2.75593">
        <ele>41.95</ele>
        <time>2014-03-11T10:24:15Z</time>
      </trkpt>
      <trkpt lat="48.44687" lon="2.75567">
        <ele>41.47</ele>
        <time>2014-03-11T10:24:30Z</time>
      </trkpt>
      <trkpt lat="48.44688" lon="2.7556">
        <ele>40.99</ele>
        <time>2014-03-11T10:24:48Z</time>
      </trkpt>
      <trkpt lat="48.44689" lon="2.75557">
        <ele>40.99</ele>
        <time>2014-03-11T10:25:11Z</time>
      </trkpt>
      <trkpt lat="48.44686" lon="2.75551">
        <ele>40.03</ele>
        <time>2014-03-11T10:25:25Z</time>
      </trkpt>
      <trkpt lat="48.44686" lon="2.75549">
        <ele>39.55</ele>
        <time>2014-03-11T10:25:52Z</time>
      </trkpt>
      <trkpt lat="48.44685" lon="2.75549">
        <ele>40.03</ele>
        <time>2014-03-11T10:26:03Z</time>
      </trkpt>
      <trkpt lat="48.44675" lon="2.75571">
        <ele>40.51</ele>
        <time>2014-03-11T10:26:19Z</time>
      </trkpt>
      <trkpt lat="48.44672" lon="2.75574">
        <ele>40.03</ele>
        <time>2014-03-11T10:26:24Z</time>
      </trkpt>
      <trkpt lat="48.44671" lon="2.75592">
        <ele>41.95</ele>
        <time>2014-03-11T10:26:34Z</time>
      </trkpt>
      <trkpt lat="48.44658" lon="2.7561">
        <ele>42.92</ele>
        <time>2014-03-11T10:26:47Z</time>
      </trkpt>
      <trkpt lat="48.44645" lon="2.75626">
        <ele>43.88</ele>
        <time>2014-03-11T10:27:01Z</time>
      </trkpt>
      <trkpt lat="48.44643" lon="2.75631">
        <ele>44.84</ele>
        <time>2014-03-11T10:27:04Z</time>
      </trkpt>
      <trkpt lat="48.4464" lon="2.75638">
        <ele>44.36</ele>
        <time>2014-03-11T10:27:08Z</time>
      </trkpt>
      <trkpt lat="48.44624" lon="2.75668">
        <ele>44.36</ele>
        <time>2014-03-11T10:27:26Z</time>
      </trkpt>
      <trkpt lat="48.4461" lon="2.75691">
        <ele>40.03</ele>
        <time>2014-03-11T10:27:43Z</time>
      </trkpt>
      <trkpt lat="48.44608" lon="2.75694">
        <ele>40.03</ele>
        <time>2014-03-11T10:27:45Z</time>
      </trkpt>
      <trkpt lat="48.44595" lon="2.7572">
        <ele>44.36</ele>
        <time>2014-03-11T10:28:02Z</time>
      </trkpt>
      <trkpt lat="48.44593" lon="2.75723">
        <ele>44.84</ele>
        <time>2014-03-11T10:28:04Z</time>
      </trkpt>
      <trkpt lat="48.44578" lon="2.75748">
        <ele>46.28</ele>
        <time>2014-03-11T10:28:21Z</time>
      </trkpt>
      <trkpt lat="48.44567" lon="2.75772">
        <ele>51.09</ele>
        <time>2014-03-11T10:28:37Z</time>
      </trkpt>
      <trkpt lat="48.44566" lon="2.75775">
        <ele>51.57</ele>
        <time>2014-03-11T10:28:39Z</time>
      </trkpt>
      <trkpt lat="48.44552" lon="2.75794">
        <ele>51.57</ele>
        <time>2014-03-11T10:28:54Z</time>
      </trkpt>
      <trkpt lat="48.44551" lon="2.75796">
        <ele>51.57</ele>
        <time>2014-03-11T10:28:55Z</time>
      </trkpt>
      <trkpt lat="48.44536" lon="2.75835">
        <ele>53.01</ele>
        <time>2014-03-11T10:29:17Z</time>
      </trkpt>
      <trkpt lat="48.44523" lon="2.7587">
        <ele>52.05</ele>
        <time>2014-03-11T10:29:38Z</time>
      </trkpt>
      <trkpt lat="48.44513" lon="2.75889">
        <ele>51.09</ele>
        <time>2014-03-11T10:29:52Z</time>
      </trkpt>
      <trkpt lat="48.44501" lon="2.75922">
        <ele>51.57</ele>
        <time>2014-03-11T10:30:10Z</time>
      </trkpt>
      <trkpt lat="48.44488" lon="2.75948">
        <ele>48.2</ele>
        <time>2014-03-11T10:30:28Z</time>
      </trkpt>
      <trkpt lat="48.44477" lon="2.75972">
        <ele>49.16</ele>
        <time>2014-03-11T10:30:45Z</time>
      </trkpt>
      <trkpt lat="48.44469" lon="2.75997">
        <ele>47.24</ele>
        <time>2014-03-11T10:31:00Z</time>
      </trkpt>
      <trkpt lat="48.44458" lon="2.76015">
        <ele>46.76</ele>
        <time>2014-03-11T10:31:14Z</time>
      </trkpt>
      <trkpt lat="48.44455" lon="2.76014">
        <ele>47.24</ele>
        <time>2014-03-11T10:31:17Z</time>
      </trkpt>
      <trkpt lat="48.44444" lon="2.76014">
        <ele>48.2</ele>
        <time>2014-03-11T10:31:25Z</time>
      </trkpt>
      <trkpt lat="48.44439" lon="2.76013">
        <ele>49.16</ele>
        <time>2014-03-11T10:31:29Z</time>
      </trkpt>
      <trkpt lat="48.44427" lon="2.76">
        <ele>49.65</ele>
        <time>2014-03-11T10:31:43Z</time>
      </trkpt>
      <trkpt lat="48.44424" lon="2.75995">
        <ele>50.13</ele>
        <time>2014-03-11T10:31:47Z</time>
      </trkpt>
      <trkpt lat="48.44407" lon="2.75979">
        <ele>52.05</ele>
        <time>2014-03-11T10:32:00Z</time>
      </trkpt>
      <trkpt lat="48.44405" lon="2.75981">
        <ele>52.53</ele>
        <time>2014-03-11T10:32:11Z</time>
      </trkpt>
      <trkpt lat="48.44401" lon="2.75971">
        <ele>51.57</ele>
        <time>2014-03-11T10:32:27Z</time>
      </trkpt>
      <trkpt lat="48.444" lon="2.75967">
        <ele>52.05</ele>
        <time>2014-03-11T10:32:42Z</time>
      </trkpt>
      <trkpt lat="48.44391" lon="2.75962">
        <ele>53.49</ele>
        <time>2014-03-11T10:32:57Z</time>
      </trkpt>
      <trkpt lat="48.44385" lon="2.75955">
        <ele>53.49</ele>
        <time>2014-03-11T10:33:03Z</time>
      </trkpt>
      <trkpt lat="48.44379" lon="2.75951">
        <ele>53.97</ele>
        <time>2014-03-11T10:33:07Z</time>
      </trkpt>
      <trkpt lat="48.44362" lon="2.7594">
        <ele>51.57</ele>
        <time>2014-03-11T10:33:22Z</time>
      </trkpt>
      <trkpt lat="48.44357" lon="2.75936">
        <ele>51.57</ele>
        <time>2014-03-11T10:33:27Z</time>
      </trkpt>
      <trkpt lat="48.44344" lon="2.75933">
        <ele>50.13</ele>
        <time>2014-03-11T10:33:39Z</time>
      </trkpt>
      <trkpt lat="48.44336" lon="2.7594">
        <ele>49.65</ele>
        <time>2014-03-11T10:33:49Z</time>
      </trkpt>
      <trkpt lat="48.44329" lon="2.75959">
        <ele>49.65</ele>
        <time>2014-03-11T10:34:02Z</time>
      </trkpt>
      <trkpt lat="48.44323" lon="2.75969">
        <ele>49.65</ele>
        <time>2014-03-11T10:34:10Z</time>
      </trkpt>
      <trkpt lat="48.44318" lon="2.75978">
        <ele>52.53</ele>
        <time>2014-03-11T10:34:27Z</time>
      </trkpt>
      <trkpt lat="48.44311" lon="2.75992">
        <ele>53.49</ele>
        <time>2014-03-11T10:34:41Z</time>
      </trkpt>
      <trkpt lat="48.44298" lon="2.76013">
        <ele>55.89</ele>
        <time>2014-03-11T10:34:56Z</time>
      </trkpt>
      <trkpt lat="48.44291" lon="2.76043">
        <ele>58.3</ele>
        <time>2014-03-11T10:35:11Z</time>
      </trkpt>
      <trkpt lat="48.44291" lon="2.76047">
        <ele>58.3</ele>
        <time>2014-03-11T10:35:13Z</time>
      </trkpt>
      <trkpt lat="48.44287" lon="2.7607">
        <ele>59.74</ele>
        <time>2014-03-11T10:35:30Z</time>
      </trkpt>
      <trkpt lat="48.44283" lon="2.76075">
        <ele>58.78</ele>
        <time>2014-03-11T10:35:42Z</time>
      </trkpt>
      <trkpt lat="48.44272" lon="2.76069">
        <ele>58.3</ele>
        <time>2014-03-11T10:35:57Z</time>
      </trkpt>
      <trkpt lat="48.4427" lon="2.76068">
        <ele>58.3</ele>
        <time>2014-03-11T10:36:12Z</time>
      </trkpt>
      <trkpt lat="48.4427" lon="2.76066">
        <ele>57.82</ele>
        <time>2014-03-11T10:36:21Z</time>
      </trkpt>
      <trkpt lat="48.44268" lon="2.7606">
        <ele>56.86</ele>
        <time>2014-03-11T10:36:36Z</time>
      </trkpt>
      <trkpt lat="48.4427" lon="2.76053">
        <ele>57.34</ele>
        <time>2014-03-11T10:36:44Z</time>
      </trkpt>
      <trkpt lat="48.44269" lon="2.76053">
        <ele>57.82</ele>
        <time>2014-03-11T10:36:47Z</time>
      </trkpt>
      <trkpt lat="48.44269" lon="2.76053">
        <ele>57.82</ele>
        <time>2014-03-11T10:36:49Z</time>
      </trkpt>
      <trkpt lat="48.44276" lon="2.76039">
        <ele>58.78</ele>
        <time>2014-03-11T10:37:02Z</time>
      </trkpt>
      <trkpt lat="48.44275" lon="2.76038">
        <ele>59.74</ele>
        <time>2014-03-11T10:37:07Z</time>
      </trkpt>
      <trkpt lat="48.44265" lon="2.76044">
        <ele>59.26</ele>
        <time>2014-03-11T10:37:22Z</time>
      </trkpt>
      <trkpt lat="48.44264" lon="2.76042">
        <ele>59.74</ele>
        <time>2014-03-11T10:37:47Z</time>
      </trkpt>
      <trkpt lat="48.44266" lon="2.76044">
        <ele>59.26</ele>
        <time>2014-03-11T10:38:02Z</time>
      </trkpt>
      <trkpt lat="48.44266" lon="2.76043">
        <ele>59.74</ele>
        <time>2014-03-11T10:38:18Z</time>
      </trkpt>
      <trkpt lat="48.44269" lon="2.76039">
        <ele>59.74</ele>
        <time>2014-03-11T10:38:33Z</time>
      </trkpt>
      <trkpt lat="48.44269" lon="2.76039">
        <ele>59.26</ele>
        <time>2014-03-11T10:38:49Z</time>
      </trkpt>
      <trkpt lat="48.44265" lon="2.76043">
        <ele>58.3</ele>
        <time>2014-03-11T10:39:01Z</time>
      </trkpt>
      <trkpt lat="48.44265" lon="2.76051">
        <ele>57.34</ele>
        <time>2014-03-11T10:39:22Z</time>
      </trkpt>
      <trkpt lat="48.44266" lon="2.76056">
        <ele>55.89</ele>
        <time>2014-03-11T10:39:29Z</time>
      </trkpt>
      <trkpt lat="48.44268" lon="2.76055">
        <ele>55.41</ele>
        <time>2014-03-11T10:39:31Z</time>
      </trkpt>
      <trkpt lat="48.44271" lon="2.7605">
        <ele>55.41</ele>
        <time>2014-03-11T10:39:49Z</time>
      </trkpt>
      <trkpt lat="48.44271" lon="2.7605">
        <ele>55.41</ele>
        <time>2014-03-11T10:39:52Z</time>
      </trkpt>
    </trkseg>
  </trk>
</gpx>